<?xml version="1.0" encoding="UTF-8" standalone="no" ?>
<gpx xmlns="http://www.topografix.com/GPX/1/1" xmlns:xsi="http://www.w3.org/2001/XMLSchema-instance" xsi:schemaLocation="http://www.topografix.com/GPX/1/1 http://www.topografix.com/GPX/1/1/gpx.xsd" version="1.1" creator="VisuGPX - https://www.visugpx.com">
  <metadata>
    <name>VTT RDD 2022 35 kms</name>
  </metadata>
  <wpt lat="50.56657" lon="3.23142">
    <ele>43.6</ele>
    <name><![CDATA[Ravito 2]]></name>
    <type><![CDATA[FOOD]]></type>
  </wpt>
  <wpt lat="50.56578" lon="3.2109">
    <ele>30.1</ele>
    <name><![CDATA[Point de parcou]]></name>
    <type><![CDATA[GENERIC]]></type>
  </wpt>
  <wpt lat="50.54933" lon="3.30862">
    <ele>62</ele>
    <name><![CDATA[Point de parcou]]></name>
    <type><![CDATA[GENERIC]]></type>
  </wpt>
  <trk>
    <name><![CDATA[VTT RDD 2022 35 kms]]></name>
    <trkseg>
      <trkpt lat="50.55328" lon="3.30738">
        <ele>59</ele>
        <time>2022-11-14T11:09:19.000Z</time>
      </trkpt>
      <trkpt lat="50.55273" lon="3.30595">
        <ele>59</ele>
        <time>2022-11-14T11:09:19.021Z</time>
      </trkpt>
      <trkpt lat="50.55335" lon="3.30549">
        <ele>59</ele>
        <time>2022-11-14T11:09:19.056Z</time>
      </trkpt>
      <trkpt lat="50.55356" lon="3.30533">
        <ele>59</ele>
        <time>2022-11-14T11:09:19.096Z</time>
      </trkpt>
      <trkpt lat="50.55345" lon="3.3051">
        <ele>58</ele>
        <time>2022-11-14T11:09:19.139Z</time>
      </trkpt>
      <trkpt lat="50.55336" lon="3.30488">
        <ele>58</ele>
        <time>2022-11-14T11:09:19.186Z</time>
      </trkpt>
      <trkpt lat="50.55326" lon="3.30446">
        <ele>58</ele>
        <time>2022-11-14T11:09:19.238Z</time>
      </trkpt>
      <trkpt lat="50.55315" lon="3.30382">
        <ele>58</ele>
        <time>2022-11-14T11:09:19.299Z</time>
      </trkpt>
      <trkpt lat="50.55311" lon="3.30367">
        <ele>58</ele>
        <time>2022-11-14T11:09:19.362Z</time>
      </trkpt>
      <trkpt lat="50.55305" lon="3.30355">
        <ele>58</ele>
        <time>2022-11-14T11:09:19.427Z</time>
      </trkpt>
      <trkpt lat="50.55296" lon="3.30341">
        <ele>58</ele>
        <time>2022-11-14T11:09:19.494Z</time>
      </trkpt>
      <trkpt lat="50.55284" lon="3.30332">
        <ele>57</ele>
        <time>2022-11-14T11:09:19.564Z</time>
      </trkpt>
      <trkpt lat="50.55229" lon="3.30297">
        <ele>57</ele>
        <time>2022-11-14T11:09:19.646Z</time>
      </trkpt>
      <trkpt lat="50.55229" lon="3.30297">
        <ele>57</ele>
        <time>2022-11-14T11:09:19.728Z</time>
      </trkpt>
      <trkpt lat="50.55187" lon="3.3027">
        <ele>57</ele>
        <time>2022-11-14T11:09:19.819Z</time>
      </trkpt>
      <trkpt lat="50.55187" lon="3.3027">
        <ele>57</ele>
        <time>2022-11-14T11:09:19.910Z</time>
      </trkpt>
      <trkpt lat="50.5514" lon="3.3025">
        <ele>57</ele>
        <time>2022-11-14T11:09:20.011Z</time>
      </trkpt>
      <trkpt lat="50.55119" lon="3.30246">
        <ele>56</ele>
        <time>2022-11-14T11:09:20.116Z</time>
      </trkpt>
      <trkpt lat="50.55086" lon="3.30248">
        <ele>56</ele>
        <time>2022-11-14T11:09:20.227Z</time>
      </trkpt>
      <trkpt lat="50.55055" lon="3.30245">
        <ele>56</ele>
        <time>2022-11-14T11:09:20.345Z</time>
      </trkpt>
      <trkpt lat="50.55024" lon="3.30235">
        <ele>56</ele>
        <time>2022-11-14T11:09:20.469Z</time>
      </trkpt>
      <trkpt lat="50.54929" lon="3.30176">
        <ele>55</ele>
        <time>2022-11-14T11:09:20.614Z</time>
      </trkpt>
      <trkpt lat="50.54916" lon="3.3017">
        <ele>55</ele>
        <time>2022-11-14T11:09:20.761Z</time>
      </trkpt>
      <trkpt lat="50.54863" lon="3.3016">
        <ele>55</ele>
        <time>2022-11-14T11:09:20.919Z</time>
      </trkpt>
      <trkpt lat="50.54848" lon="3.30153">
        <ele>54</ele>
        <time>2022-11-14T11:09:21.080Z</time>
      </trkpt>
      <trkpt lat="50.54834" lon="3.30141">
        <ele>54</ele>
        <time>2022-11-14T11:09:21.244Z</time>
      </trkpt>
      <trkpt lat="50.5479" lon="3.30083">
        <ele>53</ele>
        <time>2022-11-14T11:09:21.420Z</time>
      </trkpt>
      <trkpt lat="50.54765" lon="3.3005">
        <ele>53</ele>
        <time>2022-11-14T11:09:21.602Z</time>
      </trkpt>
      <trkpt lat="50.5477" lon="3.30035">
        <ele>53</ele>
        <time>2022-11-14T11:09:21.787Z</time>
      </trkpt>
      <trkpt lat="50.54775" lon="3.29999">
        <ele>53</ele>
        <time>2022-11-14T11:09:21.976Z</time>
      </trkpt>
      <trkpt lat="50.54786" lon="3.29904">
        <ele>52</ele>
        <time>2022-11-14T11:09:22.178Z</time>
      </trkpt>
      <trkpt lat="50.54787" lon="3.29886">
        <ele>52</ele>
        <time>2022-11-14T11:09:22.382Z</time>
      </trkpt>
      <trkpt lat="50.54788" lon="3.29866">
        <ele>52</ele>
        <time>2022-11-14T11:09:22.588Z</time>
      </trkpt>
      <trkpt lat="50.54802" lon="3.29872">
        <ele>52</ele>
        <time>2022-11-14T11:09:22.797Z</time>
      </trkpt>
      <trkpt lat="50.54818" lon="3.29897">
        <ele>53</ele>
        <time>2022-11-14T11:09:23.011Z</time>
      </trkpt>
      <trkpt lat="50.54825" lon="3.29902">
        <ele>53</ele>
        <time>2022-11-14T11:09:23.226Z</time>
      </trkpt>
      <trkpt lat="50.54825" lon="3.29902">
        <ele>53</ele>
        <time>2022-11-14T11:09:23.441Z</time>
      </trkpt>
      <trkpt lat="50.5492" lon="3.29981">
        <ele>53</ele>
        <time>2022-11-14T11:09:23.678Z</time>
      </trkpt>
      <trkpt lat="50.54937" lon="3.29993">
        <ele>54</ele>
        <time>2022-11-14T11:09:23.919Z</time>
      </trkpt>
      <trkpt lat="50.54961" lon="3.29942">
        <ele>54</ele>
        <time>2022-11-14T11:09:24.168Z</time>
      </trkpt>
      <trkpt lat="50.54967" lon="3.29883">
        <ele>54</ele>
        <time>2022-11-14T11:09:24.424Z</time>
      </trkpt>
      <trkpt lat="50.54967" lon="3.29802">
        <ele>55</ele>
        <time>2022-11-14T11:09:24.691Z</time>
      </trkpt>
      <trkpt lat="50.54977" lon="3.29789">
        <ele>55</ele>
        <time>2022-11-14T11:09:24.960Z</time>
      </trkpt>
      <trkpt lat="50.55017" lon="3.29539">
        <ele>55</ele>
        <time>2022-11-14T11:09:25.262Z</time>
      </trkpt>
      <trkpt lat="50.55025" lon="3.29429">
        <ele>56</ele>
        <time>2022-11-14T11:09:25.578Z</time>
      </trkpt>
      <trkpt lat="50.55025" lon="3.29429">
        <ele>56</ele>
        <time>2022-11-14T11:09:25.894Z</time>
      </trkpt>
      <trkpt lat="50.55025" lon="3.29424">
        <ele>56</ele>
        <time>2022-11-14T11:09:26.211Z</time>
      </trkpt>
      <trkpt lat="50.55025" lon="3.29424">
        <ele>56</ele>
        <time>2022-11-14T11:09:26.528Z</time>
      </trkpt>
      <trkpt lat="50.55031" lon="3.29333">
        <ele>56</ele>
        <time>2022-11-14T11:09:26.857Z</time>
      </trkpt>
      <trkpt lat="50.55032" lon="3.29323">
        <ele>56</ele>
        <time>2022-11-14T11:09:27.187Z</time>
      </trkpt>
      <trkpt lat="50.55017" lon="3.29337">
        <ele>56</ele>
        <time>2022-11-14T11:09:27.520Z</time>
      </trkpt>
      <trkpt lat="50.54999" lon="3.29345">
        <ele>56</ele>
        <time>2022-11-14T11:09:27.857Z</time>
      </trkpt>
      <trkpt lat="50.54981" lon="3.2934">
        <ele>55</ele>
        <time>2022-11-14T11:09:28.198Z</time>
      </trkpt>
      <trkpt lat="50.54968" lon="3.29327">
        <ele>55</ele>
        <time>2022-11-14T11:09:28.542Z</time>
      </trkpt>
      <trkpt lat="50.54937" lon="3.29267">
        <ele>55</ele>
        <time>2022-11-14T11:09:28.896Z</time>
      </trkpt>
      <trkpt lat="50.54913" lon="3.29213">
        <ele>55</ele>
        <time>2022-11-14T11:09:29.258Z</time>
      </trkpt>
      <trkpt lat="50.54901" lon="3.29171">
        <ele>54</ele>
        <time>2022-11-14T11:09:29.626Z</time>
      </trkpt>
      <trkpt lat="50.54892" lon="3.29123">
        <ele>54</ele>
        <time>2022-11-14T11:09:30.000Z</time>
      </trkpt>
      <trkpt lat="50.54887" lon="3.29093">
        <ele>54</ele>
        <time>2022-11-14T11:09:30.378Z</time>
      </trkpt>
      <trkpt lat="50.54866" lon="3.28971">
        <ele>54</ele>
        <time>2022-11-14T11:09:30.772Z</time>
      </trkpt>
      <trkpt lat="50.54855" lon="3.28892">
        <ele>54</ele>
        <time>2022-11-14T11:09:31.177Z</time>
      </trkpt>
      <trkpt lat="50.54851" lon="3.28852">
        <ele>54</ele>
        <time>2022-11-14T11:09:31.587Z</time>
      </trkpt>
      <trkpt lat="50.5485" lon="3.28843">
        <ele>54</ele>
        <time>2022-11-14T11:09:31.998Z</time>
      </trkpt>
      <trkpt lat="50.54848" lon="3.2878">
        <ele>54</ele>
        <time>2022-11-14T11:09:32.417Z</time>
      </trkpt>
      <trkpt lat="50.54848" lon="3.28772">
        <ele>54</ele>
        <time>2022-11-14T11:09:32.837Z</time>
      </trkpt>
      <trkpt lat="50.54848" lon="3.28765">
        <ele>54</ele>
        <time>2022-11-14T11:09:33.258Z</time>
      </trkpt>
      <trkpt lat="50.54847" lon="3.28723">
        <ele>55</ele>
        <time>2022-11-14T11:09:33.684Z</time>
      </trkpt>
      <trkpt lat="50.54842" lon="3.28673">
        <ele>55</ele>
        <time>2022-11-14T11:09:34.117Z</time>
      </trkpt>
      <trkpt lat="50.54816" lon="3.2852">
        <ele>55</ele>
        <time>2022-11-14T11:09:34.570Z</time>
      </trkpt>
      <trkpt lat="50.54803" lon="3.28458">
        <ele>56</ele>
        <time>2022-11-14T11:09:35.031Z</time>
      </trkpt>
      <trkpt lat="50.54781" lon="3.28385">
        <ele>56</ele>
        <time>2022-11-14T11:09:35.503Z</time>
      </trkpt>
      <trkpt lat="50.54769" lon="3.28337">
        <ele>56</ele>
        <time>2022-11-14T11:09:35.981Z</time>
      </trkpt>
      <trkpt lat="50.54769" lon="3.28337">
        <ele>56</ele>
        <time>2022-11-14T11:09:36.459Z</time>
      </trkpt>
      <trkpt lat="50.54749" lon="3.28244">
        <ele>56</ele>
        <time>2022-11-14T11:09:36.950Z</time>
      </trkpt>
      <trkpt lat="50.54732" lon="3.28152">
        <ele>56</ele>
        <time>2022-11-14T11:09:37.453Z</time>
      </trkpt>
      <trkpt lat="50.54721" lon="3.27994">
        <ele>57</ele>
        <time>2022-11-14T11:09:37.976Z</time>
      </trkpt>
      <trkpt lat="50.54714" lon="3.2797">
        <ele>57</ele>
        <time>2022-11-14T11:09:38.503Z</time>
      </trkpt>
      <trkpt lat="50.54696" lon="3.27934">
        <ele>57</ele>
        <time>2022-11-14T11:09:39.035Z</time>
      </trkpt>
      <trkpt lat="50.54695" lon="3.27934">
        <ele>57</ele>
        <time>2022-11-14T11:09:39.568Z</time>
      </trkpt>
      <trkpt lat="50.54656" lon="3.27862">
        <ele>56</ele>
        <time>2022-11-14T11:09:40.113Z</time>
      </trkpt>
      <trkpt lat="50.54645" lon="3.2781">
        <ele>56</ele>
        <time>2022-11-14T11:09:40.665Z</time>
      </trkpt>
      <trkpt lat="50.54635" lon="3.27738">
        <ele>56</ele>
        <time>2022-11-14T11:09:41.226Z</time>
      </trkpt>
      <trkpt lat="50.54629" lon="3.27652">
        <ele>56</ele>
        <time>2022-11-14T11:09:41.798Z</time>
      </trkpt>
      <trkpt lat="50.54627" lon="3.2763">
        <ele>56</ele>
        <time>2022-11-14T11:09:42.373Z</time>
      </trkpt>
      <trkpt lat="50.54609" lon="3.27549">
        <ele>56</ele>
        <time>2022-11-14T11:09:42.959Z</time>
      </trkpt>
      <trkpt lat="50.54575" lon="3.27433">
        <ele>57</ele>
        <time>2022-11-14T11:09:43.561Z</time>
      </trkpt>
      <trkpt lat="50.54571" lon="3.2742">
        <ele>57</ele>
        <time>2022-11-14T11:09:44.165Z</time>
      </trkpt>
      <trkpt lat="50.54571" lon="3.27407">
        <ele>57</ele>
        <time>2022-11-14T11:09:44.771Z</time>
      </trkpt>
      <trkpt lat="50.54615" lon="3.27368">
        <ele>57</ele>
        <time>2022-11-14T11:09:45.387Z</time>
      </trkpt>
      <trkpt lat="50.54634" lon="3.2734">
        <ele>57</ele>
        <time>2022-11-14T11:09:46.008Z</time>
      </trkpt>
      <trkpt lat="50.54646" lon="3.27316">
        <ele>58</ele>
        <time>2022-11-14T11:09:46.633Z</time>
      </trkpt>
      <trkpt lat="50.54651" lon="3.27297">
        <ele>58</ele>
        <time>2022-11-14T11:09:47.261Z</time>
      </trkpt>
      <trkpt lat="50.54662" lon="3.27294">
        <ele>58</ele>
        <time>2022-11-14T11:09:47.891Z</time>
      </trkpt>
      <trkpt lat="50.5473" lon="3.27237">
        <ele>59</ele>
        <time>2022-11-14T11:09:48.536Z</time>
      </trkpt>
      <trkpt lat="50.5473" lon="3.27237">
        <ele>59</ele>
        <time>2022-11-14T11:09:49.181Z</time>
      </trkpt>
      <trkpt lat="50.54801" lon="3.27178">
        <ele>59</ele>
        <time>2022-11-14T11:09:49.842Z</time>
      </trkpt>
      <trkpt lat="50.54811" lon="3.27174">
        <ele>59</ele>
        <time>2022-11-14T11:09:50.505Z</time>
      </trkpt>
      <trkpt lat="50.54818" lon="3.27183">
        <ele>59</ele>
        <time>2022-11-14T11:09:51.170Z</time>
      </trkpt>
      <trkpt lat="50.54875" lon="3.27486">
        <ele>59</ele>
        <time>2022-11-14T11:09:51.876Z</time>
      </trkpt>
      <trkpt lat="50.54878" lon="3.27493">
        <ele>59</ele>
        <time>2022-11-14T11:09:52.583Z</time>
      </trkpt>
      <trkpt lat="50.54885" lon="3.27496">
        <ele>59</ele>
        <time>2022-11-14T11:09:53.291Z</time>
      </trkpt>
      <trkpt lat="50.54959" lon="3.27497">
        <ele>58</ele>
        <time>2022-11-14T11:09:54.014Z</time>
      </trkpt>
      <trkpt lat="50.5517" lon="3.27499">
        <ele>58</ele>
        <time>2022-11-14T11:09:54.779Z</time>
      </trkpt>
      <trkpt lat="50.55385" lon="3.27502">
        <ele>57</ele>
        <time>2022-11-14T11:09:55.587Z</time>
      </trkpt>
      <trkpt lat="50.55454" lon="3.27502">
        <ele>57</ele>
        <time>2022-11-14T11:09:56.409Z</time>
      </trkpt>
      <trkpt lat="50.55541" lon="3.27503">
        <ele>56</ele>
        <time>2022-11-14T11:09:57.249Z</time>
      </trkpt>
      <trkpt lat="50.55681" lon="3.27503">
        <ele>56</ele>
        <time>2022-11-14T11:09:58.116Z</time>
      </trkpt>
      <trkpt lat="50.55753" lon="3.27504">
        <ele>56</ele>
        <time>2022-11-14T11:09:58.998Z</time>
      </trkpt>
      <trkpt lat="50.55967" lon="3.27508">
        <ele>57</ele>
        <time>2022-11-14T11:09:59.923Z</time>
      </trkpt>
      <trkpt lat="50.56056" lon="3.27414">
        <ele>57</ele>
        <time>2022-11-14T11:10:00.869Z</time>
      </trkpt>
      <trkpt lat="50.56069" lon="3.27445">
        <ele>57</ele>
        <time>2022-11-14T11:10:01.820Z</time>
      </trkpt>
      <trkpt lat="50.56145" lon="3.27621">
        <ele>57</ele>
        <time>2022-11-14T11:10:02.798Z</time>
      </trkpt>
      <trkpt lat="50.56156" lon="3.27639">
        <ele>57</ele>
        <time>2022-11-14T11:10:03.779Z</time>
      </trkpt>
      <trkpt lat="50.56275" lon="3.27753">
        <ele>57</ele>
        <time>2022-11-14T11:10:04.788Z</time>
      </trkpt>
      <trkpt lat="50.56286" lon="3.27762">
        <ele>57</ele>
        <time>2022-11-14T11:10:05.800Z</time>
      </trkpt>
      <trkpt lat="50.56286" lon="3.27762">
        <ele>57</ele>
        <time>2022-11-14T11:10:06.812Z</time>
      </trkpt>
      <trkpt lat="50.56296" lon="3.2777">
        <ele>56</ele>
        <time>2022-11-14T11:10:07.826Z</time>
      </trkpt>
      <trkpt lat="50.56317" lon="3.2778">
        <ele>56</ele>
        <time>2022-11-14T11:10:08.844Z</time>
      </trkpt>
      <trkpt lat="50.56426" lon="3.27778">
        <ele>56</ele>
        <time>2022-11-14T11:10:09.884Z</time>
      </trkpt>
      <trkpt lat="50.56429" lon="3.27778">
        <ele>55</ele>
        <time>2022-11-14T11:10:10.925Z</time>
      </trkpt>
      <trkpt lat="50.56466" lon="3.27407">
        <ele>54</ele>
        <time>2022-11-14T11:10:12.014Z</time>
      </trkpt>
      <trkpt lat="50.5647" lon="3.27388">
        <ele>53</ele>
        <time>2022-11-14T11:10:13.105Z</time>
      </trkpt>
      <trkpt lat="50.56477" lon="3.2738">
        <ele>53</ele>
        <time>2022-11-14T11:10:14.198Z</time>
      </trkpt>
      <trkpt lat="50.56483" lon="3.27378">
        <ele>52</ele>
        <time>2022-11-14T11:10:15.292Z</time>
      </trkpt>
      <trkpt lat="50.56503" lon="3.27382">
        <ele>52</ele>
        <time>2022-11-14T11:10:16.390Z</time>
      </trkpt>
      <trkpt lat="50.5651" lon="3.27381">
        <ele>51</ele>
        <time>2022-11-14T11:10:17.490Z</time>
      </trkpt>
      <trkpt lat="50.56515" lon="3.27374">
        <ele>50</ele>
        <time>2022-11-14T11:10:18.591Z</time>
      </trkpt>
      <trkpt lat="50.56519" lon="3.27361">
        <ele>50</ele>
        <time>2022-11-14T11:10:19.694Z</time>
      </trkpt>
      <trkpt lat="50.56522" lon="3.27331">
        <ele>49</ele>
        <time>2022-11-14T11:10:20.801Z</time>
      </trkpt>
      <trkpt lat="50.56521" lon="3.27322">
        <ele>49</ele>
        <time>2022-11-14T11:10:21.909Z</time>
      </trkpt>
      <trkpt lat="50.56518" lon="3.27314">
        <ele>48</ele>
        <time>2022-11-14T11:10:23.018Z</time>
      </trkpt>
      <trkpt lat="50.56508" lon="3.27305">
        <ele>47</ele>
        <time>2022-11-14T11:10:24.129Z</time>
      </trkpt>
      <trkpt lat="50.56492" lon="3.27292">
        <ele>47</ele>
        <time>2022-11-14T11:10:25.244Z</time>
      </trkpt>
      <trkpt lat="50.56486" lon="3.27284">
        <ele>46</ele>
        <time>2022-11-14T11:10:26.360Z</time>
      </trkpt>
      <trkpt lat="50.56477" lon="3.27258">
        <ele>46</ele>
        <time>2022-11-14T11:10:27.480Z</time>
      </trkpt>
      <trkpt lat="50.56551" lon="3.27179">
        <ele>44</ele>
        <time>2022-11-14T11:10:28.618Z</time>
      </trkpt>
      <trkpt lat="50.56609" lon="3.27037">
        <ele>43</ele>
        <time>2022-11-14T11:10:29.778Z</time>
      </trkpt>
      <trkpt lat="50.56652" lon="3.26927">
        <ele>43</ele>
        <time>2022-11-14T11:10:30.954Z</time>
      </trkpt>
      <trkpt lat="50.56695" lon="3.26818">
        <ele>42</ele>
        <time>2022-11-14T11:10:32.146Z</time>
      </trkpt>
      <trkpt lat="50.56695" lon="3.26818">
        <ele>42</ele>
        <time>2022-11-14T11:10:33.338Z</time>
      </trkpt>
      <trkpt lat="50.56725" lon="3.26742">
        <ele>42</ele>
        <time>2022-11-14T11:10:34.542Z</time>
      </trkpt>
      <trkpt lat="50.56728" lon="3.26738">
        <ele>41</ele>
        <time>2022-11-14T11:10:35.747Z</time>
      </trkpt>
      <trkpt lat="50.56733" lon="3.26738">
        <ele>41</ele>
        <time>2022-11-14T11:10:36.953Z</time>
      </trkpt>
      <trkpt lat="50.56747" lon="3.26752">
        <ele>41</ele>
        <time>2022-11-14T11:10:38.162Z</time>
      </trkpt>
      <trkpt lat="50.56764" lon="3.26768">
        <ele>41</ele>
        <time>2022-11-14T11:10:39.375Z</time>
      </trkpt>
      <trkpt lat="50.56775" lon="3.26805">
        <ele>42</ele>
        <time>2022-11-14T11:10:40.593Z</time>
      </trkpt>
      <trkpt lat="50.56813" lon="3.26903">
        <ele>42</ele>
        <time>2022-11-14T11:10:41.826Z</time>
      </trkpt>
      <trkpt lat="50.56841" lon="3.26927">
        <ele>42</ele>
        <time>2022-11-14T11:10:43.065Z</time>
      </trkpt>
      <trkpt lat="50.5685" lon="3.26936">
        <ele>43.42</ele>
        <time>2022-11-14T11:10:44.306Z</time>
      </trkpt>
      <trkpt lat="50.5685" lon="3.26936">
        <ele>43.41</ele>
        <time>2022-11-14T11:10:45.547Z</time>
      </trkpt>
      <trkpt lat="50.56849" lon="3.26937">
        <ele>42.92</ele>
        <time>2022-11-14T11:10:46.789Z</time>
      </trkpt>
      <trkpt lat="50.56871" lon="3.26957">
        <ele>44.02</ele>
        <time>2022-11-14T11:10:48.036Z</time>
      </trkpt>
      <trkpt lat="50.56882" lon="3.26971">
        <ele>45.16</ele>
        <time>2022-11-14T11:10:49.285Z</time>
      </trkpt>
      <trkpt lat="50.5691" lon="3.27008">
        <ele>46.52</ele>
        <time>2022-11-14T11:10:50.542Z</time>
      </trkpt>
      <trkpt lat="50.56929" lon="3.27039">
        <ele>48.32</ele>
        <time>2022-11-14T11:10:51.804Z</time>
      </trkpt>
      <trkpt lat="50.56944" lon="3.27072">
        <ele>50.55</ele>
        <time>2022-11-14T11:10:53.071Z</time>
      </trkpt>
      <trkpt lat="50.56956" lon="3.27107">
        <ele>52.82</ele>
        <time>2022-11-14T11:10:54.344Z</time>
      </trkpt>
      <trkpt lat="50.56966" lon="3.27128">
        <ele>55.19</ele>
        <time>2022-11-14T11:10:55.620Z</time>
      </trkpt>
      <trkpt lat="50.56966" lon="3.27128">
        <ele>57.39</ele>
        <time>2022-11-14T11:10:56.896Z</time>
      </trkpt>
      <trkpt lat="50.57008" lon="3.27224">
        <ele>61.06</ele>
        <time>2022-11-14T11:10:58.187Z</time>
      </trkpt>
      <trkpt lat="50.57112" lon="3.27363">
        <ele>63.12</ele>
        <time>2022-11-14T11:10:59.505Z</time>
      </trkpt>
      <trkpt lat="50.57141" lon="3.27297">
        <ele>63.97</ele>
        <time>2022-11-14T11:11:00.833Z</time>
      </trkpt>
      <trkpt lat="50.57149" lon="3.27276">
        <ele>64.75</ele>
        <time>2022-11-14T11:11:02.164Z</time>
      </trkpt>
      <trkpt lat="50.57149" lon="3.27276">
        <ele>64.75</ele>
        <time>2022-11-14T11:11:03.495Z</time>
      </trkpt>
      <trkpt lat="50.57188" lon="3.27178">
        <ele>61.79</ele>
        <time>2022-11-14T11:11:04.841Z</time>
      </trkpt>
      <trkpt lat="50.57201" lon="3.27143">
        <ele>60.76</ele>
        <time>2022-11-14T11:11:06.192Z</time>
      </trkpt>
      <trkpt lat="50.5721" lon="3.27109">
        <ele>60.02</ele>
        <time>2022-11-14T11:11:07.548Z</time>
      </trkpt>
      <trkpt lat="50.57217" lon="3.27076">
        <ele>59.33</ele>
        <time>2022-11-14T11:11:08.908Z</time>
      </trkpt>
      <trkpt lat="50.57218" lon="3.27054">
        <ele>58.86</ele>
        <time>2022-11-14T11:11:10.271Z</time>
      </trkpt>
      <trkpt lat="50.57228" lon="3.26963">
        <ele>58.18</ele>
        <time>2022-11-14T11:11:11.646Z</time>
      </trkpt>
      <trkpt lat="50.57206" lon="3.26951">
        <ele>57.99</ele>
        <time>2022-11-14T11:11:13.025Z</time>
      </trkpt>
      <trkpt lat="50.5718" lon="3.26926">
        <ele>57.69</ele>
        <time>2022-11-14T11:11:14.411Z</time>
      </trkpt>
      <trkpt lat="50.57176" lon="3.26919">
        <ele>57.33</ele>
        <time>2022-11-14T11:11:15.798Z</time>
      </trkpt>
      <trkpt lat="50.57177" lon="3.26915">
        <ele>57.05</ele>
        <time>2022-11-14T11:11:17.185Z</time>
      </trkpt>
      <trkpt lat="50.57177" lon="3.26915">
        <ele>57.05</ele>
        <time>2022-11-14T11:11:18.572Z</time>
      </trkpt>
      <trkpt lat="50.57178" lon="3.26899">
        <ele>55.62</ele>
        <time>2022-11-14T11:11:19.961Z</time>
      </trkpt>
      <trkpt lat="50.57138" lon="3.26883">
        <ele>55.22</ele>
        <time>2022-11-14T11:11:21.359Z</time>
      </trkpt>
      <trkpt lat="50.57117" lon="3.26871">
        <ele>54.64</ele>
        <time>2022-11-14T11:11:22.761Z</time>
      </trkpt>
      <trkpt lat="50.57097" lon="3.26855">
        <ele>54.02</ele>
        <time>2022-11-14T11:11:24.168Z</time>
      </trkpt>
      <trkpt lat="50.57111" lon="3.26792">
        <ele>53.29</ele>
        <time>2022-11-14T11:11:25.583Z</time>
      </trkpt>
      <trkpt lat="50.57131" lon="3.26801">
        <ele>53.34</ele>
        <time>2022-11-14T11:11:27.002Z</time>
      </trkpt>
      <trkpt lat="50.57176" lon="3.26811">
        <ele>53.61</ele>
        <time>2022-11-14T11:11:28.431Z</time>
      </trkpt>
      <trkpt lat="50.57194" lon="3.26816">
        <ele>53.74</ele>
        <time>2022-11-14T11:11:29.863Z</time>
      </trkpt>
      <trkpt lat="50.572" lon="3.26778">
        <ele>53.71</ele>
        <time>2022-11-14T11:11:31.300Z</time>
      </trkpt>
      <trkpt lat="50.57221" lon="3.26785">
        <ele>53.83</ele>
        <time>2022-11-14T11:11:32.742Z</time>
      </trkpt>
      <trkpt lat="50.57228" lon="3.26805">
        <ele>54.01</ele>
        <time>2022-11-14T11:11:34.186Z</time>
      </trkpt>
      <trkpt lat="50.57252" lon="3.26814">
        <ele>54.22</ele>
        <time>2022-11-14T11:11:35.635Z</time>
      </trkpt>
      <trkpt lat="50.57269" lon="3.26821">
        <ele>54.73</ele>
        <time>2022-11-14T11:11:37.088Z</time>
      </trkpt>
      <trkpt lat="50.57275" lon="3.26764">
        <ele>54.36</ele>
        <time>2022-11-14T11:11:38.548Z</time>
      </trkpt>
      <trkpt lat="50.57286" lon="3.26629">
        <ele>53.7</ele>
        <time>2022-11-14T11:11:40.025Z</time>
      </trkpt>
      <trkpt lat="50.57298" lon="3.26503">
        <ele>53.1</ele>
        <time>2022-11-14T11:11:41.519Z</time>
      </trkpt>
      <trkpt lat="50.57307" lon="3.26381">
        <ele>52.06</ele>
        <time>2022-11-14T11:11:43.028Z</time>
      </trkpt>
      <trkpt lat="50.5731" lon="3.26334">
        <ele>51.73</ele>
        <time>2022-11-14T11:11:44.543Z</time>
      </trkpt>
      <trkpt lat="50.57306" lon="3.26311">
        <ele>51.64</ele>
        <time>2022-11-14T11:11:46.061Z</time>
      </trkpt>
      <trkpt lat="50.57298" lon="3.26259">
        <ele>51.68</ele>
        <time>2022-11-14T11:11:47.586Z</time>
      </trkpt>
      <trkpt lat="50.57298" lon="3.2626">
        <ele>51.68</ele>
        <time>2022-11-14T11:11:49.111Z</time>
      </trkpt>
      <trkpt lat="50.57298" lon="3.2626">
        <ele>51.65</ele>
        <time>2022-11-14T11:11:50.636Z</time>
      </trkpt>
      <trkpt lat="50.57298" lon="3.2626">
        <ele>52.2</ele>
        <time>2022-11-14T11:11:52.161Z</time>
      </trkpt>
      <trkpt lat="50.57291" lon="3.26218">
        <ele>52.41</ele>
        <time>2022-11-14T11:11:53.692Z</time>
      </trkpt>
      <trkpt lat="50.57298" lon="3.26209">
        <ele>52.65</ele>
        <time>2022-11-14T11:11:55.224Z</time>
      </trkpt>
      <trkpt lat="50.57298" lon="3.26196">
        <ele>52.72</ele>
        <time>2022-11-14T11:11:56.758Z</time>
      </trkpt>
      <trkpt lat="50.57302" lon="3.26165">
        <ele>52.54</ele>
        <time>2022-11-14T11:11:58.296Z</time>
      </trkpt>
      <trkpt lat="50.57302" lon="3.26165">
        <ele>52.12</ele>
        <time>2022-11-14T11:11:59.834Z</time>
      </trkpt>
      <trkpt lat="50.57302" lon="3.26165">
        <ele>52.11</ele>
        <time>2022-11-14T11:12:01.372Z</time>
      </trkpt>
      <trkpt lat="50.57324" lon="3.25987">
        <ele>51</ele>
        <time>2022-11-14T11:12:02.933Z</time>
      </trkpt>
      <trkpt lat="50.57324" lon="3.25987">
        <ele>51</ele>
        <time>2022-11-14T11:12:04.494Z</time>
      </trkpt>
      <trkpt lat="50.57342" lon="3.25842">
        <ele>51</ele>
        <time>2022-11-14T11:12:06.074Z</time>
      </trkpt>
      <trkpt lat="50.57341" lon="3.25827">
        <ele>50</ele>
        <time>2022-11-14T11:12:07.656Z</time>
      </trkpt>
      <trkpt lat="50.57336" lon="3.25819">
        <ele>50</ele>
        <time>2022-11-14T11:12:09.239Z</time>
      </trkpt>
      <trkpt lat="50.57222" lon="3.25735">
        <ele>50</ele>
        <time>2022-11-14T11:12:10.848Z</time>
      </trkpt>
      <trkpt lat="50.57188" lon="3.25726">
        <ele>49</ele>
        <time>2022-11-14T11:12:12.464Z</time>
      </trkpt>
      <trkpt lat="50.57119" lon="3.25709">
        <ele>49</ele>
        <time>2022-11-14T11:12:14.093Z</time>
      </trkpt>
      <trkpt lat="50.57008" lon="3.25646">
        <ele>48</ele>
        <time>2022-11-14T11:12:15.746Z</time>
      </trkpt>
      <trkpt lat="50.57008" lon="3.25646">
        <ele>48</ele>
        <time>2022-11-14T11:12:17.399Z</time>
      </trkpt>
      <trkpt lat="50.56979" lon="3.2563">
        <ele>48</ele>
        <time>2022-11-14T11:12:19.058Z</time>
      </trkpt>
      <trkpt lat="50.56982" lon="3.25612">
        <ele>47</ele>
        <time>2022-11-14T11:12:20.720Z</time>
      </trkpt>
      <trkpt lat="50.57009" lon="3.25479">
        <ele>48</ele>
        <time>2022-11-14T11:12:22.400Z</time>
      </trkpt>
      <trkpt lat="50.57065" lon="3.25335">
        <ele>48</ele>
        <time>2022-11-14T11:12:24.101Z</time>
      </trkpt>
      <trkpt lat="50.57085" lon="3.25245">
        <ele>47</ele>
        <time>2022-11-14T11:12:25.814Z</time>
      </trkpt>
      <trkpt lat="50.57106" lon="3.25155">
        <ele>47</ele>
        <time>2022-11-14T11:12:27.539Z</time>
      </trkpt>
      <trkpt lat="50.57109" lon="3.25141">
        <ele>47</ele>
        <time>2022-11-14T11:12:29.266Z</time>
      </trkpt>
      <trkpt lat="50.5711" lon="3.25105">
        <ele>47</ele>
        <time>2022-11-14T11:12:30.998Z</time>
      </trkpt>
      <trkpt lat="50.57117" lon="3.2509">
        <ele>47</ele>
        <time>2022-11-14T11:12:32.732Z</time>
      </trkpt>
      <trkpt lat="50.57126" lon="3.25075">
        <ele>47</ele>
        <time>2022-11-14T11:12:34.469Z</time>
      </trkpt>
      <trkpt lat="50.57146" lon="3.24999">
        <ele>47</ele>
        <time>2022-11-14T11:12:36.216Z</time>
      </trkpt>
      <trkpt lat="50.57146" lon="3.24999">
        <ele>47</ele>
        <time>2022-11-14T11:12:37.963Z</time>
      </trkpt>
      <trkpt lat="50.57176" lon="3.24888">
        <ele>47</ele>
        <time>2022-11-14T11:12:39.726Z</time>
      </trkpt>
      <trkpt lat="50.57176" lon="3.24888">
        <ele>47</ele>
        <time>2022-11-14T11:12:41.489Z</time>
      </trkpt>
      <trkpt lat="50.57302" lon="3.24412">
        <ele>47</ele>
        <time>2022-11-14T11:12:43.317Z</time>
      </trkpt>
      <trkpt lat="50.57278" lon="3.24333">
        <ele>47</ele>
        <time>2022-11-14T11:12:45.157Z</time>
      </trkpt>
      <trkpt lat="50.57251" lon="3.24241">
        <ele>47</ele>
        <time>2022-11-14T11:12:47.010Z</time>
      </trkpt>
      <trkpt lat="50.57278" lon="3.24333">
        <ele>47</ele>
        <time>2022-11-14T11:12:48.876Z</time>
      </trkpt>
      <trkpt lat="50.57278" lon="3.24333">
        <ele>47</ele>
        <time>2022-11-14T11:12:50.742Z</time>
      </trkpt>
      <trkpt lat="50.5723" lon="3.24171">
        <ele>47</ele>
        <time>2022-11-14T11:12:52.630Z</time>
      </trkpt>
      <trkpt lat="50.5723" lon="3.24171">
        <ele>47</ele>
        <time>2022-11-14T11:12:54.518Z</time>
      </trkpt>
      <trkpt lat="50.57129" lon="3.23779">
        <ele>46</ele>
        <time>2022-11-14T11:12:56.460Z</time>
      </trkpt>
      <trkpt lat="50.57108" lon="3.2369">
        <ele>46</ele>
        <time>2022-11-14T11:12:58.414Z</time>
      </trkpt>
      <trkpt lat="50.57099" lon="3.23634">
        <ele>48.53</ele>
        <time>2022-11-14T11:13:00.376Z</time>
      </trkpt>
      <trkpt lat="50.57099" lon="3.23634">
        <ele>48.54</ele>
        <time>2022-11-14T11:13:02.338Z</time>
      </trkpt>
      <trkpt lat="50.57099" lon="3.23634">
        <ele>48.32</ele>
        <time>2022-11-14T11:13:04.300Z</time>
      </trkpt>
      <trkpt lat="50.57091" lon="3.23581">
        <ele>47.55</ele>
        <time>2022-11-14T11:13:06.269Z</time>
      </trkpt>
      <trkpt lat="50.57059" lon="3.23607">
        <ele>47.55</ele>
        <time>2022-11-14T11:13:08.245Z</time>
      </trkpt>
      <trkpt lat="50.57044" lon="3.23618">
        <ele>47.15</ele>
        <time>2022-11-14T11:13:10.224Z</time>
      </trkpt>
      <trkpt lat="50.56983" lon="3.23639">
        <ele>45.99</ele>
        <time>2022-11-14T11:13:12.216Z</time>
      </trkpt>
      <trkpt lat="50.56959" lon="3.23648">
        <ele>45.43</ele>
        <time>2022-11-14T11:13:14.213Z</time>
      </trkpt>
      <trkpt lat="50.56835" lon="3.23718">
        <ele>44.55</ele>
        <time>2022-11-14T11:13:16.236Z</time>
      </trkpt>
      <trkpt lat="50.56798" lon="3.23439">
        <ele>44.2</ele>
        <time>2022-11-14T11:13:18.296Z</time>
      </trkpt>
      <trkpt lat="50.56798" lon="3.2344">
        <ele>44.2</ele>
        <time>2022-11-14T11:13:20.356Z</time>
      </trkpt>
      <trkpt lat="50.56763" lon="3.23184">
        <ele>43.48</ele>
        <time>2022-11-14T11:13:22.449Z</time>
      </trkpt>
      <trkpt lat="50.56682" lon="3.23151">
        <ele>43.06</ele>
        <time>2022-11-14T11:13:24.559Z</time>
      </trkpt>
      <trkpt lat="50.56657" lon="3.23142">
        <ele>42.71</ele>
        <time>2022-11-14T11:13:26.674Z</time>
      </trkpt>
      <trkpt lat="50.56657" lon="3.23142">
        <ele>42</ele>
        <time>2022-11-14T11:13:28.789Z</time>
      </trkpt>
      <trkpt lat="50.56657" lon="3.23142">
        <ele>42.24</ele>
        <time>2022-11-14T11:13:30.904Z</time>
      </trkpt>
      <trkpt lat="50.56578" lon="3.23111">
        <ele>41.58</ele>
        <time>2022-11-14T11:13:33.035Z</time>
      </trkpt>
      <trkpt lat="50.56578" lon="3.23111">
        <ele>41.11</ele>
        <time>2022-11-14T11:13:35.166Z</time>
      </trkpt>
      <trkpt lat="50.56526" lon="3.23266">
        <ele>40.52</ele>
        <time>2022-11-14T11:13:37.320Z</time>
      </trkpt>
      <trkpt lat="50.56502" lon="3.23249">
        <ele>39.83</ele>
        <time>2022-11-14T11:13:39.479Z</time>
      </trkpt>
      <trkpt lat="50.56496" lon="3.23241">
        <ele>39.22</ele>
        <time>2022-11-14T11:13:41.640Z</time>
      </trkpt>
      <trkpt lat="50.5649" lon="3.23224">
        <ele>38.55</ele>
        <time>2022-11-14T11:13:43.803Z</time>
      </trkpt>
      <trkpt lat="50.56488" lon="3.23197">
        <ele>37.82</ele>
        <time>2022-11-14T11:13:45.970Z</time>
      </trkpt>
      <trkpt lat="50.56485" lon="3.23099">
        <ele>36.97</ele>
        <time>2022-11-14T11:13:48.149Z</time>
      </trkpt>
      <trkpt lat="50.56484" lon="3.23087">
        <ele>36.45</ele>
        <time>2022-11-14T11:13:50.330Z</time>
      </trkpt>
      <trkpt lat="50.56479" lon="3.23063">
        <ele>35.91</ele>
        <time>2022-11-14T11:13:52.514Z</time>
      </trkpt>
      <trkpt lat="50.56471" lon="3.23051">
        <ele>35.47</ele>
        <time>2022-11-14T11:13:54.700Z</time>
      </trkpt>
      <trkpt lat="50.56463" lon="3.23043">
        <ele>35.18</ele>
        <time>2022-11-14T11:13:56.888Z</time>
      </trkpt>
      <trkpt lat="50.56442" lon="3.23036">
        <ele>35</ele>
        <time>2022-11-14T11:13:59.080Z</time>
      </trkpt>
      <trkpt lat="50.56444" lon="3.23029">
        <ele>34.81</ele>
        <time>2022-11-14T11:14:01.273Z</time>
      </trkpt>
      <trkpt lat="50.56444" lon="3.23029">
        <ele>34.64</ele>
        <time>2022-11-14T11:14:03.466Z</time>
      </trkpt>
      <trkpt lat="50.56467" lon="3.22891">
        <ele>34.37</ele>
        <time>2022-11-14T11:14:05.677Z</time>
      </trkpt>
      <trkpt lat="50.56478" lon="3.22837">
        <ele>34.09</ele>
        <time>2022-11-14T11:14:07.896Z</time>
      </trkpt>
      <trkpt lat="50.56509" lon="3.22723">
        <ele>33.91</ele>
        <time>2022-11-14T11:14:10.130Z</time>
      </trkpt>
      <trkpt lat="50.56526" lon="3.22642">
        <ele>32.88</ele>
        <time>2022-11-14T11:14:12.375Z</time>
      </trkpt>
      <trkpt lat="50.56526" lon="3.22642">
        <ele>32.88</ele>
        <time>2022-11-14T11:14:14.620Z</time>
      </trkpt>
      <trkpt lat="50.56526" lon="3.22642">
        <ele>32.07</ele>
        <time>2022-11-14T11:14:16.865Z</time>
      </trkpt>
      <trkpt lat="50.56556" lon="3.22502">
        <ele>32.27</ele>
        <time>2022-11-14T11:14:19.129Z</time>
      </trkpt>
      <trkpt lat="50.56565" lon="3.22448">
        <ele>32.09</ele>
        <time>2022-11-14T11:14:21.400Z</time>
      </trkpt>
      <trkpt lat="50.5657" lon="3.22429">
        <ele>32.13</ele>
        <time>2022-11-14T11:14:23.674Z</time>
      </trkpt>
      <trkpt lat="50.5657" lon="3.22429">
        <ele>32.27</ele>
        <time>2022-11-14T11:14:25.948Z</time>
      </trkpt>
      <trkpt lat="50.56573" lon="3.22421">
        <ele>32.56</ele>
        <time>2022-11-14T11:14:28.223Z</time>
      </trkpt>
      <trkpt lat="50.56582" lon="3.22408">
        <ele>33.07</ele>
        <time>2022-11-14T11:14:30.501Z</time>
      </trkpt>
      <trkpt lat="50.56583" lon="3.22403">
        <ele>33.6</ele>
        <time>2022-11-14T11:14:32.779Z</time>
      </trkpt>
      <trkpt lat="50.56586" lon="3.22302">
        <ele>34.53</ele>
        <time>2022-11-14T11:14:35.070Z</time>
      </trkpt>
      <trkpt lat="50.56576" lon="3.22274">
        <ele>34.5</ele>
        <time>2022-11-14T11:14:37.365Z</time>
      </trkpt>
      <trkpt lat="50.56576" lon="3.22274">
        <ele>34.5</ele>
        <time>2022-11-14T11:14:39.660Z</time>
      </trkpt>
      <trkpt lat="50.56548" lon="3.22193">
        <ele>33.24</ele>
        <time>2022-11-14T11:14:41.967Z</time>
      </trkpt>
      <trkpt lat="50.56548" lon="3.22198">
        <ele>32.01</ele>
        <time>2022-11-14T11:14:44.275Z</time>
      </trkpt>
      <trkpt lat="50.56548" lon="3.22193">
        <ele>32.22</ele>
        <time>2022-11-14T11:14:46.583Z</time>
      </trkpt>
      <trkpt lat="50.56561" lon="3.22091">
        <ele>31.64</ele>
        <time>2022-11-14T11:14:48.904Z</time>
      </trkpt>
      <trkpt lat="50.56567" lon="3.22042">
        <ele>31.77</ele>
        <time>2022-11-14T11:14:51.232Z</time>
      </trkpt>
      <trkpt lat="50.56579" lon="3.22016">
        <ele>32.22</ele>
        <time>2022-11-14T11:14:53.564Z</time>
      </trkpt>
      <trkpt lat="50.56601" lon="3.21964">
        <ele>32.93</ele>
        <time>2022-11-14T11:14:55.904Z</time>
      </trkpt>
      <trkpt lat="50.56609" lon="3.21945">
        <ele>33.31</ele>
        <time>2022-11-14T11:14:58.247Z</time>
      </trkpt>
      <trkpt lat="50.56612" lon="3.21938">
        <ele>33.78</ele>
        <time>2022-11-14T11:15:00.591Z</time>
      </trkpt>
      <trkpt lat="50.56615" lon="3.21931">
        <ele>33.68</ele>
        <time>2022-11-14T11:15:02.936Z</time>
      </trkpt>
      <trkpt lat="50.56563" lon="3.21906">
        <ele>33.39</ele>
        <time>2022-11-14T11:15:05.292Z</time>
      </trkpt>
      <trkpt lat="50.56573" lon="3.2186">
        <ele>33.36</ele>
        <time>2022-11-14T11:15:07.654Z</time>
      </trkpt>
      <trkpt lat="50.56544" lon="3.21834">
        <ele>33.14</ele>
        <time>2022-11-14T11:15:10.023Z</time>
      </trkpt>
      <trkpt lat="50.56538" lon="3.21831">
        <ele>33.06</ele>
        <time>2022-11-14T11:15:12.393Z</time>
      </trkpt>
      <trkpt lat="50.56544" lon="3.21802">
        <ele>33</ele>
        <time>2022-11-14T11:15:14.767Z</time>
      </trkpt>
      <trkpt lat="50.56547" lon="3.218">
        <ele>32.97</ele>
        <time>2022-11-14T11:15:17.142Z</time>
      </trkpt>
      <trkpt lat="50.56557" lon="3.21803">
        <ele>32.95</ele>
        <time>2022-11-14T11:15:19.519Z</time>
      </trkpt>
      <trkpt lat="50.56561" lon="3.21793">
        <ele>32.94</ele>
        <time>2022-11-14T11:15:21.897Z</time>
      </trkpt>
      <trkpt lat="50.56571" lon="3.21769">
        <ele>33.19</ele>
        <time>2022-11-14T11:15:24.279Z</time>
      </trkpt>
      <trkpt lat="50.56561" lon="3.21763">
        <ele>33.48</ele>
        <time>2022-11-14T11:15:26.663Z</time>
      </trkpt>
      <trkpt lat="50.56533" lon="3.2174">
        <ele>34.02</ele>
        <time>2022-11-14T11:15:29.054Z</time>
      </trkpt>
      <trkpt lat="50.5654" lon="3.2172">
        <ele>34.56</ele>
        <time>2022-11-14T11:15:31.448Z</time>
      </trkpt>
      <trkpt lat="50.56539" lon="3.2172">
        <ele>34.98</ele>
        <time>2022-11-14T11:15:33.842Z</time>
      </trkpt>
      <trkpt lat="50.56573" lon="3.21634">
        <ele>35</ele>
        <time>2022-11-14T11:15:36.248Z</time>
      </trkpt>
      <trkpt lat="50.56573" lon="3.21634">
        <ele>35</ele>
        <time>2022-11-14T11:15:38.654Z</time>
      </trkpt>
      <trkpt lat="50.56573" lon="3.21634">
        <ele>35</ele>
        <time>2022-11-14T11:15:41.060Z</time>
      </trkpt>
      <trkpt lat="50.56585" lon="3.21604">
        <ele>36</ele>
        <time>2022-11-14T11:15:43.471Z</time>
      </trkpt>
      <trkpt lat="50.56588" lon="3.21597">
        <ele>36</ele>
        <time>2022-11-14T11:15:45.883Z</time>
      </trkpt>
      <trkpt lat="50.56595" lon="3.21598">
        <ele>36</ele>
        <time>2022-11-14T11:15:48.296Z</time>
      </trkpt>
      <trkpt lat="50.5663" lon="3.21601">
        <ele>36</ele>
        <time>2022-11-14T11:15:50.717Z</time>
      </trkpt>
      <trkpt lat="50.56632" lon="3.21571">
        <ele>36</ele>
        <time>2022-11-14T11:15:53.141Z</time>
      </trkpt>
      <trkpt lat="50.56632" lon="3.21493">
        <ele>36</ele>
        <time>2022-11-14T11:15:55.575Z</time>
      </trkpt>
      <trkpt lat="50.56636" lon="3.21431">
        <ele>35</ele>
        <time>2022-11-14T11:15:58.017Z</time>
      </trkpt>
      <trkpt lat="50.56622" lon="3.21424">
        <ele>35</ele>
        <time>2022-11-14T11:16:00.462Z</time>
      </trkpt>
      <trkpt lat="50.56622" lon="3.21424">
        <ele>35</ele>
        <time>2022-11-14T11:16:02.907Z</time>
      </trkpt>
      <trkpt lat="50.56598" lon="3.2141">
        <ele>34</ele>
        <time>2022-11-14T11:16:05.357Z</time>
      </trkpt>
      <trkpt lat="50.56587" lon="3.21391">
        <ele>34</ele>
        <time>2022-11-14T11:16:07.811Z</time>
      </trkpt>
      <trkpt lat="50.56571" lon="3.21227">
        <ele>33</ele>
        <time>2022-11-14T11:16:10.286Z</time>
      </trkpt>
      <trkpt lat="50.56571" lon="3.21212">
        <ele>32</ele>
        <time>2022-11-14T11:16:12.763Z</time>
      </trkpt>
      <trkpt lat="50.56574" lon="3.21152">
        <ele>32</ele>
        <time>2022-11-14T11:16:15.247Z</time>
      </trkpt>
      <trkpt lat="50.56577" lon="3.21122">
        <ele>32</ele>
        <time>2022-11-14T11:16:17.735Z</time>
      </trkpt>
      <trkpt lat="50.56577" lon="3.21103">
        <ele>31</ele>
        <time>2022-11-14T11:16:20.226Z</time>
      </trkpt>
      <trkpt lat="50.56578" lon="3.21092">
        <ele>31</ele>
        <time>2022-11-14T11:16:22.718Z</time>
      </trkpt>
      <trkpt lat="50.56578" lon="3.2109">
        <ele>31</ele>
        <time>2022-11-14T11:16:25.210Z</time>
      </trkpt>
      <trkpt lat="50.56578" lon="3.2109">
        <ele>31</ele>
        <time>2022-11-14T11:16:27.702Z</time>
      </trkpt>
      <trkpt lat="50.56578" lon="3.2109">
        <ele>31</ele>
        <time>2022-11-14T11:16:30.194Z</time>
      </trkpt>
      <trkpt lat="50.56578" lon="3.2109">
        <ele>31</ele>
        <time>2022-11-14T11:16:32.686Z</time>
      </trkpt>
      <trkpt lat="50.56578" lon="3.2109">
        <ele>32</ele>
        <time>2022-11-14T11:16:35.178Z</time>
      </trkpt>
      <trkpt lat="50.56576" lon="3.2104">
        <ele>32</ele>
        <time>2022-11-14T11:16:37.677Z</time>
      </trkpt>
      <trkpt lat="50.56576" lon="3.2104">
        <ele>32</ele>
        <time>2022-11-14T11:16:40.176Z</time>
      </trkpt>
      <trkpt lat="50.56576" lon="3.2104">
        <ele>32</ele>
        <time>2022-11-14T11:16:42.675Z</time>
      </trkpt>
      <trkpt lat="50.56576" lon="3.21039">
        <ele>33</ele>
        <time>2022-11-14T11:16:45.174Z</time>
      </trkpt>
      <trkpt lat="50.56715" lon="3.21059">
        <ele>33.99</ele>
        <time>2022-11-14T11:16:47.701Z</time>
      </trkpt>
      <trkpt lat="50.56715" lon="3.21059">
        <ele>34</ele>
        <time>2022-11-14T11:16:50.228Z</time>
      </trkpt>
      <trkpt lat="50.56715" lon="3.21059">
        <ele>34.04</ele>
        <time>2022-11-14T11:16:52.755Z</time>
      </trkpt>
      <trkpt lat="50.56716" lon="3.21059">
        <ele>36</ele>
        <time>2022-11-14T11:16:55.282Z</time>
      </trkpt>
      <trkpt lat="50.56814" lon="3.21139">
        <ele>36.98</ele>
        <time>2022-11-14T11:16:57.831Z</time>
      </trkpt>
      <trkpt lat="50.56814" lon="3.21139">
        <ele>36.99</ele>
        <time>2022-11-14T11:17:00.380Z</time>
      </trkpt>
      <trkpt lat="50.56814" lon="3.21139">
        <ele>37</ele>
        <time>2022-11-14T11:17:02.929Z</time>
      </trkpt>
      <trkpt lat="50.56815" lon="3.21139">
        <ele>39</ele>
        <time>2022-11-14T11:17:05.478Z</time>
      </trkpt>
      <trkpt lat="50.56858" lon="3.21218">
        <ele>39.98</ele>
        <time>2022-11-14T11:17:08.041Z</time>
      </trkpt>
      <trkpt lat="50.56858" lon="3.21218">
        <ele>39.99</ele>
        <time>2022-11-14T11:17:10.604Z</time>
      </trkpt>
      <trkpt lat="50.56858" lon="3.21218">
        <ele>40</ele>
        <time>2022-11-14T11:17:13.167Z</time>
      </trkpt>
      <trkpt lat="50.56859" lon="3.21219">
        <ele>41</ele>
        <time>2022-11-14T11:17:15.730Z</time>
      </trkpt>
      <trkpt lat="50.56859" lon="3.21216">
        <ele>41</ele>
        <time>2022-11-14T11:17:18.293Z</time>
      </trkpt>
      <trkpt lat="50.56859" lon="3.21216">
        <ele>42</ele>
        <time>2022-11-14T11:17:20.856Z</time>
      </trkpt>
      <trkpt lat="50.56859" lon="3.21216">
        <ele>41</ele>
        <time>2022-11-14T11:17:23.419Z</time>
      </trkpt>
      <trkpt lat="50.56892" lon="3.21177">
        <ele>41.99</ele>
        <time>2022-11-14T11:17:25.991Z</time>
      </trkpt>
      <trkpt lat="50.56892" lon="3.21177">
        <ele>42</ele>
        <time>2022-11-14T11:17:28.563Z</time>
      </trkpt>
      <trkpt lat="50.56892" lon="3.21177">
        <ele>42</ele>
        <time>2022-11-14T11:17:31.135Z</time>
      </trkpt>
      <trkpt lat="50.56893" lon="3.21176">
        <ele>41</ele>
        <time>2022-11-14T11:17:33.707Z</time>
      </trkpt>
      <trkpt lat="50.56915" lon="3.20984">
        <ele>41</ele>
        <time>2022-11-14T11:17:36.304Z</time>
      </trkpt>
      <trkpt lat="50.56933" lon="3.20823">
        <ele>40</ele>
        <time>2022-11-14T11:17:38.921Z</time>
      </trkpt>
      <trkpt lat="50.56939" lon="3.2073">
        <ele>40</ele>
        <time>2022-11-14T11:17:41.550Z</time>
      </trkpt>
      <trkpt lat="50.56939" lon="3.2073">
        <ele>40</ele>
        <time>2022-11-14T11:17:44.179Z</time>
      </trkpt>
      <trkpt lat="50.56939" lon="3.2073">
        <ele>40</ele>
        <time>2022-11-14T11:17:46.809Z</time>
      </trkpt>
      <trkpt lat="50.56939" lon="3.20728">
        <ele>39</ele>
        <time>2022-11-14T11:17:49.439Z</time>
      </trkpt>
      <trkpt lat="50.56936" lon="3.20728">
        <ele>38</ele>
        <time>2022-11-14T11:17:52.069Z</time>
      </trkpt>
      <trkpt lat="50.56939" lon="3.20728">
        <ele>39</ele>
        <time>2022-11-14T11:17:54.700Z</time>
      </trkpt>
      <trkpt lat="50.56945" lon="3.20655">
        <ele>38</ele>
        <time>2022-11-14T11:17:57.340Z</time>
      </trkpt>
      <trkpt lat="50.5695" lon="3.20609">
        <ele>37</ele>
        <time>2022-11-14T11:17:59.986Z</time>
      </trkpt>
      <trkpt lat="50.5695" lon="3.20609">
        <ele>37</ele>
        <time>2022-11-14T11:18:02.632Z</time>
      </trkpt>
      <trkpt lat="50.5695" lon="3.20609">
        <ele>37</ele>
        <time>2022-11-14T11:18:05.278Z</time>
      </trkpt>
      <trkpt lat="50.56951" lon="3.20603">
        <ele>37</ele>
        <time>2022-11-14T11:18:07.925Z</time>
      </trkpt>
      <trkpt lat="50.56951" lon="3.20603">
        <ele>37</ele>
        <time>2022-11-14T11:18:10.572Z</time>
      </trkpt>
      <trkpt lat="50.56951" lon="3.20603">
        <ele>37</ele>
        <time>2022-11-14T11:18:13.219Z</time>
      </trkpt>
      <trkpt lat="50.56953" lon="3.20583">
        <ele>37</ele>
        <time>2022-11-14T11:18:15.869Z</time>
      </trkpt>
      <trkpt lat="50.56969" lon="3.20472">
        <ele>37</ele>
        <time>2022-11-14T11:18:18.533Z</time>
      </trkpt>
      <trkpt lat="50.56991" lon="3.20404">
        <ele>37</ele>
        <time>2022-11-14T11:18:21.207Z</time>
      </trkpt>
      <trkpt lat="50.56991" lon="3.20404">
        <ele>37</ele>
        <time>2022-11-14T11:18:23.881Z</time>
      </trkpt>
      <trkpt lat="50.56991" lon="3.20404">
        <ele>37</ele>
        <time>2022-11-14T11:18:26.555Z</time>
      </trkpt>
      <trkpt lat="50.56993" lon="3.20399">
        <ele>37</ele>
        <time>2022-11-14T11:18:29.230Z</time>
      </trkpt>
      <trkpt lat="50.56993" lon="3.20399">
        <ele>37</ele>
        <time>2022-11-14T11:18:31.905Z</time>
      </trkpt>
      <trkpt lat="50.57008" lon="3.20351">
        <ele>38</ele>
        <time>2022-11-14T11:18:34.586Z</time>
      </trkpt>
      <trkpt lat="50.57016" lon="3.20344">
        <ele>37.78</ele>
        <time>2022-11-14T11:18:37.269Z</time>
      </trkpt>
      <trkpt lat="50.57026" lon="3.20334">
        <ele>38</ele>
        <time>2022-11-14T11:18:39.955Z</time>
      </trkpt>
      <trkpt lat="50.57033" lon="3.20325">
        <ele>38</ele>
        <time>2022-11-14T11:18:42.642Z</time>
      </trkpt>
      <trkpt lat="50.57033" lon="3.20325">
        <ele>38</ele>
        <time>2022-11-14T11:18:45.329Z</time>
      </trkpt>
      <trkpt lat="50.57049" lon="3.20314">
        <ele>39</ele>
        <time>2022-11-14T11:18:48.020Z</time>
      </trkpt>
      <trkpt lat="50.57099" lon="3.20289">
        <ele>39</ele>
        <time>2022-11-14T11:18:50.722Z</time>
      </trkpt>
      <trkpt lat="50.57118" lon="3.20283">
        <ele>39</ele>
        <time>2022-11-14T11:18:53.427Z</time>
      </trkpt>
      <trkpt lat="50.57152" lon="3.20277">
        <ele>39</ele>
        <time>2022-11-14T11:18:56.139Z</time>
      </trkpt>
      <trkpt lat="50.57158" lon="3.2028">
        <ele>40</ele>
        <time>2022-11-14T11:18:58.853Z</time>
      </trkpt>
      <trkpt lat="50.57195" lon="3.2031">
        <ele>40</ele>
        <time>2022-11-14T11:19:01.575Z</time>
      </trkpt>
      <trkpt lat="50.57298" lon="3.20415">
        <ele>40</ele>
        <time>2022-11-14T11:19:04.321Z</time>
      </trkpt>
      <trkpt lat="50.57374" lon="3.20221">
        <ele>40</ele>
        <time>2022-11-14T11:19:07.096Z</time>
      </trkpt>
      <trkpt lat="50.57388" lon="3.20189">
        <ele>40</ele>
        <time>2022-11-14T11:19:09.876Z</time>
      </trkpt>
      <trkpt lat="50.57413" lon="3.20115">
        <ele>40</ele>
        <time>2022-11-14T11:19:12.667Z</time>
      </trkpt>
      <trkpt lat="50.57417" lon="3.20102">
        <ele>40</ele>
        <time>2022-11-14T11:19:15.460Z</time>
      </trkpt>
      <trkpt lat="50.5742" lon="3.20103">
        <ele>40</ele>
        <time>2022-11-14T11:19:18.253Z</time>
      </trkpt>
      <trkpt lat="50.57443" lon="3.20063">
        <ele>40</ele>
        <time>2022-11-14T11:19:21.053Z</time>
      </trkpt>
      <trkpt lat="50.57443" lon="3.20052">
        <ele>40</ele>
        <time>2022-11-14T11:19:23.855Z</time>
      </trkpt>
      <trkpt lat="50.5748" lon="3.19997">
        <ele>40</ele>
        <time>2022-11-14T11:19:26.667Z</time>
      </trkpt>
      <trkpt lat="50.57514" lon="3.19941">
        <ele>41</ele>
        <time>2022-11-14T11:19:29.489Z</time>
      </trkpt>
      <trkpt lat="50.57519" lon="3.19963">
        <ele>41</ele>
        <time>2022-11-14T11:19:32.314Z</time>
      </trkpt>
      <trkpt lat="50.57518" lon="3.1998">
        <ele>41</ele>
        <time>2022-11-14T11:19:35.141Z</time>
      </trkpt>
      <trkpt lat="50.57507" lon="3.2001">
        <ele>41</ele>
        <time>2022-11-14T11:19:37.972Z</time>
      </trkpt>
      <trkpt lat="50.57504" lon="3.20028">
        <ele>41</ele>
        <time>2022-11-14T11:19:40.806Z</time>
      </trkpt>
      <trkpt lat="50.57526" lon="3.20206">
        <ele>42</ele>
        <time>2022-11-14T11:19:43.663Z</time>
      </trkpt>
      <trkpt lat="50.57529" lon="3.20242">
        <ele>42</ele>
        <time>2022-11-14T11:19:46.524Z</time>
      </trkpt>
      <trkpt lat="50.57605" lon="3.20831">
        <ele>42</ele>
        <time>2022-11-14T11:19:49.462Z</time>
      </trkpt>
      <trkpt lat="50.57604" lon="3.20829">
        <ele>42</ele>
        <time>2022-11-14T11:19:52.400Z</time>
      </trkpt>
      <trkpt lat="50.57604" lon="3.20829">
        <ele>42</ele>
        <time>2022-11-14T11:19:55.338Z</time>
      </trkpt>
      <trkpt lat="50.57605" lon="3.20834">
        <ele>43</ele>
        <time>2022-11-14T11:19:58.277Z</time>
      </trkpt>
      <trkpt lat="50.57605" lon="3.20834">
        <ele>43</ele>
        <time>2022-11-14T11:20:01.216Z</time>
      </trkpt>
      <trkpt lat="50.57622" lon="3.20964">
        <ele>43</ele>
        <time>2022-11-14T11:20:04.172Z</time>
      </trkpt>
      <trkpt lat="50.57622" lon="3.20964">
        <ele>43</ele>
        <time>2022-11-14T11:20:07.128Z</time>
      </trkpt>
      <trkpt lat="50.57667" lon="3.2133">
        <ele>43</ele>
        <time>2022-11-14T11:20:10.131Z</time>
      </trkpt>
      <trkpt lat="50.57719" lon="3.21308">
        <ele>44</ele>
        <time>2022-11-14T11:20:13.145Z</time>
      </trkpt>
      <trkpt lat="50.57857" lon="3.2128">
        <ele>44</ele>
        <time>2022-11-14T11:20:16.187Z</time>
      </trkpt>
      <trkpt lat="50.57999" lon="3.21236">
        <ele>43</ele>
        <time>2022-11-14T11:20:19.258Z</time>
      </trkpt>
      <trkpt lat="50.58094" lon="3.21214">
        <ele>43</ele>
        <time>2022-11-14T11:20:22.348Z</time>
      </trkpt>
      <trkpt lat="50.58096" lon="3.2127">
        <ele>43</ele>
        <time>2022-11-14T11:20:25.445Z</time>
      </trkpt>
      <trkpt lat="50.58094" lon="3.2135">
        <ele>44</ele>
        <time>2022-11-14T11:20:28.552Z</time>
      </trkpt>
      <trkpt lat="50.5809" lon="3.21392">
        <ele>44</ele>
        <time>2022-11-14T11:20:31.665Z</time>
      </trkpt>
      <trkpt lat="50.58084" lon="3.21437">
        <ele>44</ele>
        <time>2022-11-14T11:20:34.784Z</time>
      </trkpt>
      <trkpt lat="50.5806" lon="3.21564">
        <ele>45</ele>
        <time>2022-11-14T11:20:37.920Z</time>
      </trkpt>
      <trkpt lat="50.57968" lon="3.21919">
        <ele>45</ele>
        <time>2022-11-14T11:20:41.104Z</time>
      </trkpt>
      <trkpt lat="50.57963" lon="3.21947">
        <ele>45</ele>
        <time>2022-11-14T11:20:44.292Z</time>
      </trkpt>
      <trkpt lat="50.5796" lon="3.21967">
        <ele>46</ele>
        <time>2022-11-14T11:20:47.483Z</time>
      </trkpt>
      <trkpt lat="50.57961" lon="3.21984">
        <ele>46</ele>
        <time>2022-11-14T11:20:50.676Z</time>
      </trkpt>
      <trkpt lat="50.57961" lon="3.21984">
        <ele>47</ele>
        <time>2022-11-14T11:20:53.869Z</time>
      </trkpt>
      <trkpt lat="50.57961" lon="3.22065">
        <ele>47</ele>
        <time>2022-11-14T11:20:57.072Z</time>
      </trkpt>
      <trkpt lat="50.57938" lon="3.22244">
        <ele>47</ele>
        <time>2022-11-14T11:21:00.299Z</time>
      </trkpt>
      <trkpt lat="50.57938" lon="3.22244">
        <ele>48</ele>
        <time>2022-11-14T11:21:03.526Z</time>
      </trkpt>
      <trkpt lat="50.57938" lon="3.22244">
        <ele>47</ele>
        <time>2022-11-14T11:21:06.753Z</time>
      </trkpt>
      <trkpt lat="50.57937" lon="3.22252">
        <ele>48</ele>
        <time>2022-11-14T11:21:09.981Z</time>
      </trkpt>
      <trkpt lat="50.57935" lon="3.22286">
        <ele>48</ele>
        <time>2022-11-14T11:21:13.213Z</time>
      </trkpt>
      <trkpt lat="50.57931" lon="3.22378">
        <ele>48.98</ele>
        <time>2022-11-14T11:21:16.457Z</time>
      </trkpt>
      <trkpt lat="50.57931" lon="3.22378">
        <ele>48.99</ele>
        <time>2022-11-14T11:21:19.701Z</time>
      </trkpt>
      <trkpt lat="50.57931" lon="3.22378">
        <ele>49</ele>
        <time>2022-11-14T11:21:22.945Z</time>
      </trkpt>
      <trkpt lat="50.57931" lon="3.22384">
        <ele>49</ele>
        <time>2022-11-14T11:21:26.190Z</time>
      </trkpt>
      <trkpt lat="50.57925" lon="3.22545">
        <ele>49</ele>
        <time>2022-11-14T11:21:29.455Z</time>
      </trkpt>
      <trkpt lat="50.57924" lon="3.2273">
        <ele>49</ele>
        <time>2022-11-14T11:21:32.744Z</time>
      </trkpt>
      <trkpt lat="50.57916" lon="3.22844">
        <ele>49</ele>
        <time>2022-11-14T11:21:36.047Z</time>
      </trkpt>
      <trkpt lat="50.57875" lon="3.22834">
        <ele>49</ele>
        <time>2022-11-14T11:21:39.359Z</time>
      </trkpt>
      <trkpt lat="50.57847" lon="3.22818">
        <ele>48</ele>
        <time>2022-11-14T11:21:42.676Z</time>
      </trkpt>
      <trkpt lat="50.57808" lon="3.22787">
        <ele>48</ele>
        <time>2022-11-14T11:21:46.002Z</time>
      </trkpt>
      <trkpt lat="50.57791" lon="3.22776">
        <ele>48</ele>
        <time>2022-11-14T11:21:49.332Z</time>
      </trkpt>
      <trkpt lat="50.57777" lon="3.22772">
        <ele>48</ele>
        <time>2022-11-14T11:21:52.665Z</time>
      </trkpt>
      <trkpt lat="50.57743" lon="3.22768">
        <ele>47</ele>
        <time>2022-11-14T11:21:56.005Z</time>
      </trkpt>
      <trkpt lat="50.57725" lon="3.22768">
        <ele>47</ele>
        <time>2022-11-14T11:21:59.348Z</time>
      </trkpt>
      <trkpt lat="50.57703" lon="3.2277">
        <ele>47</ele>
        <time>2022-11-14T11:22:02.696Z</time>
      </trkpt>
      <trkpt lat="50.57684" lon="3.22765">
        <ele>47</ele>
        <time>2022-11-14T11:22:06.047Z</time>
      </trkpt>
      <trkpt lat="50.57667" lon="3.22759">
        <ele>47</ele>
        <time>2022-11-14T11:22:09.402Z</time>
      </trkpt>
      <trkpt lat="50.57647" lon="3.22745">
        <ele>47</ele>
        <time>2022-11-14T11:22:12.761Z</time>
      </trkpt>
      <trkpt lat="50.57628" lon="3.22723">
        <ele>47</ele>
        <time>2022-11-14T11:22:16.125Z</time>
      </trkpt>
      <trkpt lat="50.57598" lon="3.22676">
        <ele>47</ele>
        <time>2022-11-14T11:22:19.498Z</time>
      </trkpt>
      <trkpt lat="50.57577" lon="3.22649">
        <ele>46</ele>
        <time>2022-11-14T11:22:22.876Z</time>
      </trkpt>
      <trkpt lat="50.57487" lon="3.22587">
        <ele>47</ele>
        <time>2022-11-14T11:22:26.274Z</time>
      </trkpt>
      <trkpt lat="50.57443" lon="3.22544">
        <ele>47</ele>
        <time>2022-11-14T11:22:29.682Z</time>
      </trkpt>
      <trkpt lat="50.57404" lon="3.2251">
        <ele>47</ele>
        <time>2022-11-14T11:22:33.099Z</time>
      </trkpt>
      <trkpt lat="50.57218" lon="3.22414">
        <ele>47</ele>
        <time>2022-11-14T11:22:36.555Z</time>
      </trkpt>
      <trkpt lat="50.5706" lon="3.22329">
        <ele>47</ele>
        <time>2022-11-14T11:22:40.044Z</time>
      </trkpt>
      <trkpt lat="50.56979" lon="3.22308">
        <ele>46</ele>
        <time>2022-11-14T11:22:43.550Z</time>
      </trkpt>
      <trkpt lat="50.56997" lon="3.2234">
        <ele>46</ele>
        <time>2022-11-14T11:22:47.062Z</time>
      </trkpt>
      <trkpt lat="50.56997" lon="3.2234">
        <ele>46</ele>
        <time>2022-11-14T11:22:50.574Z</time>
      </trkpt>
      <trkpt lat="50.57013" lon="3.22378">
        <ele>46</ele>
        <time>2022-11-14T11:22:54.091Z</time>
      </trkpt>
      <trkpt lat="50.57025" lon="3.22428">
        <ele>46</ele>
        <time>2022-11-14T11:22:57.615Z</time>
      </trkpt>
      <trkpt lat="50.5704" lon="3.22517">
        <ele>46</ele>
        <time>2022-11-14T11:23:01.151Z</time>
      </trkpt>
      <trkpt lat="50.57045" lon="3.22616">
        <ele>45</ele>
        <time>2022-11-14T11:23:04.700Z</time>
      </trkpt>
      <trkpt lat="50.57049" lon="3.22938">
        <ele>45</ele>
        <time>2022-11-14T11:23:08.290Z</time>
      </trkpt>
      <trkpt lat="50.57049" lon="3.22938">
        <ele>44</ele>
        <time>2022-11-14T11:23:11.880Z</time>
      </trkpt>
      <trkpt lat="50.5705" lon="3.22998">
        <ele>44</ele>
        <time>2022-11-14T11:23:15.477Z</time>
      </trkpt>
      <trkpt lat="50.57053" lon="3.23038">
        <ele>44</ele>
        <time>2022-11-14T11:23:19.079Z</time>
      </trkpt>
      <trkpt lat="50.57045" lon="3.23035">
        <ele>44</ele>
        <time>2022-11-14T11:23:22.683Z</time>
      </trkpt>
      <trkpt lat="50.57035" lon="3.2302">
        <ele>43</ele>
        <time>2022-11-14T11:23:26.290Z</time>
      </trkpt>
      <trkpt lat="50.57035" lon="3.2302">
        <ele>43</ele>
        <time>2022-11-14T11:23:29.897Z</time>
      </trkpt>
      <trkpt lat="50.57035" lon="3.2302">
        <ele>42.99</ele>
        <time>2022-11-14T11:23:33.504Z</time>
      </trkpt>
      <trkpt lat="50.57032" lon="3.23016">
        <ele>42</ele>
        <time>2022-11-14T11:23:37.111Z</time>
      </trkpt>
      <trkpt lat="50.57028" lon="3.23011">
        <ele>44</ele>
        <time>2022-11-14T11:23:40.719Z</time>
      </trkpt>
      <trkpt lat="50.56951" lon="3.23086">
        <ele>43</ele>
        <time>2022-11-14T11:23:44.346Z</time>
      </trkpt>
      <trkpt lat="50.56864" lon="3.23176">
        <ele>43</ele>
        <time>2022-11-14T11:23:47.994Z</time>
      </trkpt>
      <trkpt lat="50.56772" lon="3.23188">
        <ele>43</ele>
        <time>2022-11-14T11:23:51.660Z</time>
      </trkpt>
      <trkpt lat="50.56744" lon="3.23177">
        <ele>43.1</ele>
        <time>2022-11-14T11:23:55.332Z</time>
      </trkpt>
      <trkpt lat="50.56744" lon="3.23177">
        <ele>43.11</ele>
        <time>2022-11-14T11:23:59.004Z</time>
      </trkpt>
      <trkpt lat="50.56576" lon="3.2311">
        <ele>41</ele>
        <time>2022-11-14T11:24:02.711Z</time>
      </trkpt>
      <trkpt lat="50.56576" lon="3.2311">
        <ele>40</ele>
        <time>2022-11-14T11:24:06.418Z</time>
      </trkpt>
      <trkpt lat="50.56527" lon="3.23252">
        <ele>40</ele>
        <time>2022-11-14T11:24:10.145Z</time>
      </trkpt>
      <trkpt lat="50.56524" lon="3.23267">
        <ele>39</ele>
        <time>2022-11-14T11:24:13.874Z</time>
      </trkpt>
      <trkpt lat="50.56508" lon="3.23256">
        <ele>39</ele>
        <time>2022-11-14T11:24:17.607Z</time>
      </trkpt>
      <trkpt lat="50.56495" lon="3.23243">
        <ele>38</ele>
        <time>2022-11-14T11:24:21.343Z</time>
      </trkpt>
      <trkpt lat="50.56489" lon="3.23222">
        <ele>38</ele>
        <time>2022-11-14T11:24:25.082Z</time>
      </trkpt>
      <trkpt lat="50.56486" lon="3.23199">
        <ele>38</ele>
        <time>2022-11-14T11:24:28.824Z</time>
      </trkpt>
      <trkpt lat="50.56485" lon="3.23111">
        <ele>37</ele>
        <time>2022-11-14T11:24:32.577Z</time>
      </trkpt>
      <trkpt lat="50.56485" lon="3.23111">
        <ele>37</ele>
        <time>2022-11-14T11:24:36.330Z</time>
      </trkpt>
      <trkpt lat="50.56485" lon="3.23111">
        <ele>37</ele>
        <time>2022-11-14T11:24:40.083Z</time>
      </trkpt>
      <trkpt lat="50.56485" lon="3.23105">
        <ele>37</ele>
        <time>2022-11-14T11:24:43.837Z</time>
      </trkpt>
      <trkpt lat="50.56485" lon="3.23104">
        <ele>37</ele>
        <time>2022-11-14T11:24:47.591Z</time>
      </trkpt>
      <trkpt lat="50.56481" lon="3.23076">
        <ele>37</ele>
        <time>2022-11-14T11:24:51.349Z</time>
      </trkpt>
      <trkpt lat="50.56476" lon="3.23057">
        <ele>36</ele>
        <time>2022-11-14T11:24:55.109Z</time>
      </trkpt>
      <trkpt lat="50.56461" lon="3.23044">
        <ele>36</ele>
        <time>2022-11-14T11:24:58.873Z</time>
      </trkpt>
      <trkpt lat="50.56441" lon="3.23036">
        <ele>36</ele>
        <time>2022-11-14T11:25:02.641Z</time>
      </trkpt>
      <trkpt lat="50.5638" lon="3.23007">
        <ele>36</ele>
        <time>2022-11-14T11:25:06.421Z</time>
      </trkpt>
      <trkpt lat="50.56359" lon="3.23001">
        <ele>36</ele>
        <time>2022-11-14T11:25:10.206Z</time>
      </trkpt>
      <trkpt lat="50.56336" lon="3.23002">
        <ele>36</ele>
        <time>2022-11-14T11:25:13.995Z</time>
      </trkpt>
      <trkpt lat="50.56319" lon="3.23007">
        <ele>36</ele>
        <time>2022-11-14T11:25:17.788Z</time>
      </trkpt>
      <trkpt lat="50.56284" lon="3.23004">
        <ele>36</ele>
        <time>2022-11-14T11:25:21.588Z</time>
      </trkpt>
      <trkpt lat="50.56206" lon="3.22995">
        <ele>36</ele>
        <time>2022-11-14T11:25:25.403Z</time>
      </trkpt>
      <trkpt lat="50.56167" lon="3.22988">
        <ele>35</ele>
        <time>2022-11-14T11:25:29.226Z</time>
      </trkpt>
      <trkpt lat="50.56027" lon="3.22978">
        <ele>35</ele>
        <time>2022-11-14T11:25:33.077Z</time>
      </trkpt>
      <trkpt lat="50.55953" lon="3.22957">
        <ele>35</ele>
        <time>2022-11-14T11:25:36.943Z</time>
      </trkpt>
      <trkpt lat="50.55947" lon="3.22956">
        <ele>34</ele>
        <time>2022-11-14T11:25:40.811Z</time>
      </trkpt>
      <trkpt lat="50.55901" lon="3.22923">
        <ele>34</ele>
        <time>2022-11-14T11:25:44.689Z</time>
      </trkpt>
      <trkpt lat="50.55878" lon="3.2292">
        <ele>33</ele>
        <time>2022-11-14T11:25:48.571Z</time>
      </trkpt>
      <trkpt lat="50.55878" lon="3.2292">
        <ele>33</ele>
        <time>2022-11-14T11:25:52.453Z</time>
      </trkpt>
      <trkpt lat="50.55873" lon="3.2292">
        <ele>32</ele>
        <time>2022-11-14T11:25:56.336Z</time>
      </trkpt>
      <trkpt lat="50.55735" lon="3.22942">
        <ele>32</ele>
        <time>2022-11-14T11:26:00.247Z</time>
      </trkpt>
      <trkpt lat="50.55673" lon="3.2295">
        <ele>31</ele>
        <time>2022-11-14T11:26:04.171Z</time>
      </trkpt>
      <trkpt lat="50.55646" lon="3.22947">
        <ele>31</ele>
        <time>2022-11-14T11:26:08.100Z</time>
      </trkpt>
      <trkpt lat="50.55621" lon="3.22944">
        <ele>31</ele>
        <time>2022-11-14T11:26:12.034Z</time>
      </trkpt>
      <trkpt lat="50.55606" lon="3.22938">
        <ele>31</ele>
        <time>2022-11-14T11:26:15.971Z</time>
      </trkpt>
      <trkpt lat="50.55549" lon="3.22915">
        <ele>31</ele>
        <time>2022-11-14T11:26:19.920Z</time>
      </trkpt>
      <trkpt lat="50.55541" lon="3.22912">
        <ele>31</ele>
        <time>2022-11-14T11:26:23.871Z</time>
      </trkpt>
      <trkpt lat="50.5554" lon="3.22912">
        <ele>31</ele>
        <time>2022-11-14T11:26:27.822Z</time>
      </trkpt>
      <trkpt lat="50.55532" lon="3.22909">
        <ele>31</ele>
        <time>2022-11-14T11:26:31.774Z</time>
      </trkpt>
      <trkpt lat="50.55532" lon="3.22909">
        <ele>31</ele>
        <time>2022-11-14T11:26:35.726Z</time>
      </trkpt>
      <trkpt lat="50.55517" lon="3.22903">
        <ele>32</ele>
        <time>2022-11-14T11:26:39.682Z</time>
      </trkpt>
      <trkpt lat="50.55452" lon="3.22871">
        <ele>32</ele>
        <time>2022-11-14T11:26:43.651Z</time>
      </trkpt>
      <trkpt lat="50.5544" lon="3.22865">
        <ele>32</ele>
        <time>2022-11-14T11:26:47.623Z</time>
      </trkpt>
      <trkpt lat="50.55035" lon="3.22667">
        <ele>33</ele>
        <time>2022-11-14T11:26:51.680Z</time>
      </trkpt>
      <trkpt lat="50.55035" lon="3.22666">
        <ele>33</ele>
        <time>2022-11-14T11:26:55.737Z</time>
      </trkpt>
      <trkpt lat="50.55033" lon="3.22665">
        <ele>33</ele>
        <time>2022-11-14T11:26:59.794Z</time>
      </trkpt>
      <trkpt lat="50.55031" lon="3.22675">
        <ele>33</ele>
        <time>2022-11-14T11:27:03.852Z</time>
      </trkpt>
      <trkpt lat="50.55031" lon="3.22675">
        <ele>33</ele>
        <time>2022-11-14T11:27:07.910Z</time>
      </trkpt>
      <trkpt lat="50.54987" lon="3.22881">
        <ele>34</ele>
        <time>2022-11-14T11:27:11.996Z</time>
      </trkpt>
      <trkpt lat="50.54983" lon="3.22903">
        <ele>34</ele>
        <time>2022-11-14T11:27:16.085Z</time>
      </trkpt>
      <trkpt lat="50.54987" lon="3.22881">
        <ele>34</ele>
        <time>2022-11-14T11:27:20.177Z</time>
      </trkpt>
      <trkpt lat="50.54987" lon="3.22881">
        <ele>34</ele>
        <time>2022-11-14T11:27:24.269Z</time>
      </trkpt>
      <trkpt lat="50.54981" lon="3.22909">
        <ele>34</ele>
        <time>2022-11-14T11:27:28.365Z</time>
      </trkpt>
      <trkpt lat="50.54981" lon="3.22909">
        <ele>34</ele>
        <time>2022-11-14T11:27:32.461Z</time>
      </trkpt>
      <trkpt lat="50.54906" lon="3.23267">
        <ele>34</ele>
        <time>2022-11-14T11:27:36.605Z</time>
      </trkpt>
      <trkpt lat="50.54906" lon="3.23267">
        <ele>34</ele>
        <time>2022-11-14T11:27:40.749Z</time>
      </trkpt>
      <trkpt lat="50.54899" lon="3.23301">
        <ele>34</ele>
        <time>2022-11-14T11:27:44.897Z</time>
      </trkpt>
      <trkpt lat="50.54899" lon="3.23301">
        <ele>34</ele>
        <time>2022-11-14T11:27:49.045Z</time>
      </trkpt>
      <trkpt lat="50.54899" lon="3.23301">
        <ele>34</ele>
        <time>2022-11-14T11:27:53.193Z</time>
      </trkpt>
      <trkpt lat="50.54893" lon="3.23329">
        <ele>34</ele>
        <time>2022-11-14T11:27:57.345Z</time>
      </trkpt>
      <trkpt lat="50.54893" lon="3.23329">
        <ele>34</ele>
        <time>2022-11-14T11:28:01.497Z</time>
      </trkpt>
      <trkpt lat="50.54835" lon="3.23607">
        <ele>35</ele>
        <time>2022-11-14T11:28:05.686Z</time>
      </trkpt>
      <trkpt lat="50.54833" lon="3.23618">
        <ele>35</ele>
        <time>2022-11-14T11:28:09.877Z</time>
      </trkpt>
      <trkpt lat="50.54837" lon="3.23622">
        <ele>36</ele>
        <time>2022-11-14T11:28:14.069Z</time>
      </trkpt>
      <trkpt lat="50.54837" lon="3.23622">
        <ele>37</ele>
        <time>2022-11-14T11:28:18.261Z</time>
      </trkpt>
      <trkpt lat="50.54948" lon="3.23706">
        <ele>37</ele>
        <time>2022-11-14T11:28:22.478Z</time>
      </trkpt>
      <trkpt lat="50.54861" lon="3.23645">
        <ele>38</ele>
        <time>2022-11-14T11:28:26.714Z</time>
      </trkpt>
      <trkpt lat="50.54948" lon="3.23706">
        <ele>37</ele>
        <time>2022-11-14T11:28:30.969Z</time>
      </trkpt>
      <trkpt lat="50.54915" lon="3.23681">
        <ele>40</ele>
        <time>2022-11-14T11:28:35.231Z</time>
      </trkpt>
      <trkpt lat="50.54948" lon="3.23706">
        <ele>37</ele>
        <time>2022-11-14T11:28:39.500Z</time>
      </trkpt>
      <trkpt lat="50.54927" lon="3.23798">
        <ele>43</ele>
        <time>2022-11-14T11:28:43.782Z</time>
      </trkpt>
      <trkpt lat="50.54866" lon="3.24023">
        <ele>45</ele>
        <time>2022-11-14T11:28:48.095Z</time>
      </trkpt>
      <trkpt lat="50.5485" lon="3.24089">
        <ele>47</ele>
        <time>2022-11-14T11:28:52.417Z</time>
      </trkpt>
      <trkpt lat="50.54822" lon="3.24181">
        <ele>49</ele>
        <time>2022-11-14T11:28:56.752Z</time>
      </trkpt>
      <trkpt lat="50.54765" lon="3.24401">
        <ele>51</ele>
        <time>2022-11-14T11:29:01.117Z</time>
      </trkpt>
      <trkpt lat="50.54725" lon="3.2456">
        <ele>53</ele>
        <time>2022-11-14T11:29:05.504Z</time>
      </trkpt>
      <trkpt lat="50.54724" lon="3.24576">
        <ele>55</ele>
        <time>2022-11-14T11:29:09.893Z</time>
      </trkpt>
      <trkpt lat="50.54726" lon="3.246">
        <ele>57</ele>
        <time>2022-11-14T11:29:14.285Z</time>
      </trkpt>
      <trkpt lat="50.54758" lon="3.2479">
        <ele>58</ele>
        <time>2022-11-14T11:29:18.702Z</time>
      </trkpt>
      <trkpt lat="50.54758" lon="3.2479">
        <ele>60</ele>
        <time>2022-11-14T11:29:23.119Z</time>
      </trkpt>
      <trkpt lat="50.54758" lon="3.24796">
        <ele>61</ele>
        <time>2022-11-14T11:29:27.537Z</time>
      </trkpt>
      <trkpt lat="50.54755" lon="3.24825">
        <ele>62</ele>
        <time>2022-11-14T11:29:31.959Z</time>
      </trkpt>
      <trkpt lat="50.54748" lon="3.24851">
        <ele>63</ele>
        <time>2022-11-14T11:29:36.384Z</time>
      </trkpt>
      <trkpt lat="50.54723" lon="3.24917">
        <ele>64</ele>
        <time>2022-11-14T11:29:40.819Z</time>
      </trkpt>
      <trkpt lat="50.54717" lon="3.24943">
        <ele>65</ele>
        <time>2022-11-14T11:29:45.258Z</time>
      </trkpt>
      <trkpt lat="50.54715" lon="3.24962">
        <ele>65</ele>
        <time>2022-11-14T11:29:49.699Z</time>
      </trkpt>
      <trkpt lat="50.54715" lon="3.24994">
        <ele>65</ele>
        <time>2022-11-14T11:29:54.144Z</time>
      </trkpt>
      <trkpt lat="50.54718" lon="3.2503">
        <ele>66</ele>
        <time>2022-11-14T11:29:58.594Z</time>
      </trkpt>
      <trkpt lat="50.54725" lon="3.25063">
        <ele>66</ele>
        <time>2022-11-14T11:30:03.048Z</time>
      </trkpt>
      <trkpt lat="50.54752" lon="3.25159">
        <ele>66</ele>
        <time>2022-11-14T11:30:07.516Z</time>
      </trkpt>
      <trkpt lat="50.54767" lon="3.25218">
        <ele>65</ele>
        <time>2022-11-14T11:30:11.992Z</time>
      </trkpt>
      <trkpt lat="50.547" lon="3.25204">
        <ele>65</ele>
        <time>2022-11-14T11:30:16.481Z</time>
      </trkpt>
      <trkpt lat="50.54684" lon="3.2519">
        <ele>65</ele>
        <time>2022-11-14T11:30:20.974Z</time>
      </trkpt>
      <trkpt lat="50.54674" lon="3.25167">
        <ele>64</ele>
        <time>2022-11-14T11:30:25.470Z</time>
      </trkpt>
      <trkpt lat="50.54461" lon="3.2464">
        <ele>63</ele>
        <time>2022-11-14T11:30:30.046Z</time>
      </trkpt>
      <trkpt lat="50.54451" lon="3.24647">
        <ele>62</ele>
        <time>2022-11-14T11:30:34.624Z</time>
      </trkpt>
      <trkpt lat="50.54385" lon="3.2465">
        <ele>61</ele>
        <time>2022-11-14T11:30:39.216Z</time>
      </trkpt>
      <trkpt lat="50.54378" lon="3.24654">
        <ele>61</ele>
        <time>2022-11-14T11:30:43.809Z</time>
      </trkpt>
      <trkpt lat="50.54378" lon="3.24654">
        <ele>60</ele>
        <time>2022-11-14T11:30:48.402Z</time>
      </trkpt>
      <trkpt lat="50.54361" lon="3.24664">
        <ele>60</ele>
        <time>2022-11-14T11:30:52.999Z</time>
      </trkpt>
      <trkpt lat="50.54351" lon="3.24679">
        <ele>60</ele>
        <time>2022-11-14T11:30:57.598Z</time>
      </trkpt>
      <trkpt lat="50.54341" lon="3.2471">
        <ele>60</ele>
        <time>2022-11-14T11:31:02.202Z</time>
      </trkpt>
      <trkpt lat="50.54318" lon="3.24809">
        <ele>59</ele>
        <time>2022-11-14T11:31:06.819Z</time>
      </trkpt>
      <trkpt lat="50.54304" lon="3.24862">
        <ele>59</ele>
        <time>2022-11-14T11:31:11.444Z</time>
      </trkpt>
      <trkpt lat="50.54284" lon="3.24929">
        <ele>60</ele>
        <time>2022-11-14T11:31:16.078Z</time>
      </trkpt>
      <trkpt lat="50.54271" lon="3.24978">
        <ele>60</ele>
        <time>2022-11-14T11:31:20.719Z</time>
      </trkpt>
      <trkpt lat="50.54271" lon="3.24978">
        <ele>60</ele>
        <time>2022-11-14T11:31:25.360Z</time>
      </trkpt>
      <trkpt lat="50.54271" lon="3.24978">
        <ele>61</ele>
        <time>2022-11-14T11:31:30.001Z</time>
      </trkpt>
      <trkpt lat="50.54271" lon="3.24978">
        <ele>61</ele>
        <time>2022-11-14T11:31:34.642Z</time>
      </trkpt>
      <trkpt lat="50.54271" lon="3.24978">
        <ele>61</ele>
        <time>2022-11-14T11:31:39.283Z</time>
      </trkpt>
      <trkpt lat="50.54271" lon="3.24978">
        <ele>61</ele>
        <time>2022-11-14T11:31:43.924Z</time>
      </trkpt>
      <trkpt lat="50.54267" lon="3.24993">
        <ele>63</ele>
        <time>2022-11-14T11:31:48.567Z</time>
      </trkpt>
      <trkpt lat="50.54256" lon="3.25053">
        <ele>63</ele>
        <time>2022-11-14T11:31:53.218Z</time>
      </trkpt>
      <trkpt lat="50.54242" lon="3.25141">
        <ele>63</ele>
        <time>2022-11-14T11:31:57.880Z</time>
      </trkpt>
      <trkpt lat="50.54225" lon="3.25223">
        <ele>64</ele>
        <time>2022-11-14T11:32:02.554Z</time>
      </trkpt>
      <trkpt lat="50.54208" lon="3.25351">
        <ele>64</ele>
        <time>2022-11-14T11:32:07.244Z</time>
      </trkpt>
      <trkpt lat="50.54204" lon="3.25362">
        <ele>64</ele>
        <time>2022-11-14T11:32:11.936Z</time>
      </trkpt>
      <trkpt lat="50.54193" lon="3.2539">
        <ele>65</ele>
        <time>2022-11-14T11:32:16.632Z</time>
      </trkpt>
      <trkpt lat="50.54178" lon="3.25409">
        <ele>64</ele>
        <time>2022-11-14T11:32:21.332Z</time>
      </trkpt>
      <trkpt lat="50.53997" lon="3.25547">
        <ele>64</ele>
        <time>2022-11-14T11:32:26.072Z</time>
      </trkpt>
      <trkpt lat="50.53963" lon="3.25576">
        <ele>64</ele>
        <time>2022-11-14T11:32:30.820Z</time>
      </trkpt>
      <trkpt lat="50.53951" lon="3.25603">
        <ele>63</ele>
        <time>2022-11-14T11:32:35.572Z</time>
      </trkpt>
      <trkpt lat="50.53942" lon="3.25645">
        <ele>63</ele>
        <time>2022-11-14T11:32:40.330Z</time>
      </trkpt>
      <trkpt lat="50.53924" lon="3.25737">
        <ele>62</ele>
        <time>2022-11-14T11:32:45.100Z</time>
      </trkpt>
      <trkpt lat="50.5392" lon="3.25751">
        <ele>62</ele>
        <time>2022-11-14T11:32:49.872Z</time>
      </trkpt>
      <trkpt lat="50.53912" lon="3.25756">
        <ele>61</ele>
        <time>2022-11-14T11:32:54.646Z</time>
      </trkpt>
      <trkpt lat="50.53834" lon="3.25784">
        <ele>60</ele>
        <time>2022-11-14T11:32:59.436Z</time>
      </trkpt>
      <trkpt lat="50.53766" lon="3.25814">
        <ele>59</ele>
        <time>2022-11-14T11:33:04.240Z</time>
      </trkpt>
      <trkpt lat="50.53697" lon="3.25847">
        <ele>58</ele>
        <time>2022-11-14T11:33:09.058Z</time>
      </trkpt>
      <trkpt lat="50.5365" lon="3.25873">
        <ele>57</ele>
        <time>2022-11-14T11:33:13.886Z</time>
      </trkpt>
      <trkpt lat="50.53641" lon="3.25863">
        <ele>56</ele>
        <time>2022-11-14T11:33:18.717Z</time>
      </trkpt>
      <trkpt lat="50.53635" lon="3.25859">
        <ele>55</ele>
        <time>2022-11-14T11:33:23.549Z</time>
      </trkpt>
      <trkpt lat="50.53627" lon="3.25858">
        <ele>54</ele>
        <time>2022-11-14T11:33:28.382Z</time>
      </trkpt>
      <trkpt lat="50.53551" lon="3.25883">
        <ele>53</ele>
        <time>2022-11-14T11:33:33.231Z</time>
      </trkpt>
      <trkpt lat="50.53523" lon="3.25885">
        <ele>52</ele>
        <time>2022-11-14T11:33:38.086Z</time>
      </trkpt>
      <trkpt lat="50.53523" lon="3.25885">
        <ele>51</ele>
        <time>2022-11-14T11:33:42.941Z</time>
      </trkpt>
      <trkpt lat="50.53505" lon="3.25885">
        <ele>51</ele>
        <time>2022-11-14T11:33:47.799Z</time>
      </trkpt>
      <trkpt lat="50.53436" lon="3.25932">
        <ele>50</ele>
        <time>2022-11-14T11:33:52.672Z</time>
      </trkpt>
      <trkpt lat="50.53396" lon="3.25948">
        <ele>49</ele>
        <time>2022-11-14T11:33:57.554Z</time>
      </trkpt>
      <trkpt lat="50.5329" lon="3.25924">
        <ele>48</ele>
        <time>2022-11-14T11:34:02.457Z</time>
      </trkpt>
      <trkpt lat="50.53262" lon="3.25935">
        <ele>47</ele>
        <time>2022-11-14T11:34:07.366Z</time>
      </trkpt>
      <trkpt lat="50.5324" lon="3.25951">
        <ele>47</ele>
        <time>2022-11-14T11:34:12.280Z</time>
      </trkpt>
      <trkpt lat="50.5322" lon="3.25971">
        <ele>46</ele>
        <time>2022-11-14T11:34:17.198Z</time>
      </trkpt>
      <trkpt lat="50.53206" lon="3.25999">
        <ele>46</ele>
        <time>2022-11-14T11:34:22.121Z</time>
      </trkpt>
      <trkpt lat="50.532" lon="3.26018">
        <ele>46</ele>
        <time>2022-11-14T11:34:27.047Z</time>
      </trkpt>
      <trkpt lat="50.532" lon="3.26025">
        <ele>45</ele>
        <time>2022-11-14T11:34:31.974Z</time>
      </trkpt>
      <trkpt lat="50.532" lon="3.26025">
        <ele>45</ele>
        <time>2022-11-14T11:34:36.901Z</time>
      </trkpt>
      <trkpt lat="50.532" lon="3.26025">
        <ele>45</ele>
        <time>2022-11-14T11:34:41.828Z</time>
      </trkpt>
      <trkpt lat="50.532" lon="3.26025">
        <ele>45</ele>
        <time>2022-11-14T11:34:46.755Z</time>
      </trkpt>
      <trkpt lat="50.532" lon="3.26025">
        <ele>45</ele>
        <time>2022-11-14T11:34:51.682Z</time>
      </trkpt>
      <trkpt lat="50.53198" lon="3.26055">
        <ele>45</ele>
        <time>2022-11-14T11:34:56.612Z</time>
      </trkpt>
      <trkpt lat="50.53194" lon="3.26071">
        <ele>44</ele>
        <time>2022-11-14T11:35:01.545Z</time>
      </trkpt>
      <trkpt lat="50.53182" lon="3.26092">
        <ele>44</ele>
        <time>2022-11-14T11:35:06.481Z</time>
      </trkpt>
      <trkpt lat="50.5318" lon="3.26106">
        <ele>44</ele>
        <time>2022-11-14T11:35:11.419Z</time>
      </trkpt>
      <trkpt lat="50.53186" lon="3.26151">
        <ele>44</ele>
        <time>2022-11-14T11:35:16.363Z</time>
      </trkpt>
      <trkpt lat="50.53184" lon="3.2616">
        <ele>44</ele>
        <time>2022-11-14T11:35:21.308Z</time>
      </trkpt>
      <trkpt lat="50.53166" lon="3.26165">
        <ele>43</ele>
        <time>2022-11-14T11:35:26.257Z</time>
      </trkpt>
      <trkpt lat="50.53166" lon="3.26165">
        <ele>43</ele>
        <time>2022-11-14T11:35:31.206Z</time>
      </trkpt>
      <trkpt lat="50.53138" lon="3.26174">
        <ele>43</ele>
        <time>2022-11-14T11:35:36.161Z</time>
      </trkpt>
      <trkpt lat="50.53129" lon="3.26189">
        <ele>43</ele>
        <time>2022-11-14T11:35:41.118Z</time>
      </trkpt>
      <trkpt lat="50.53101" lon="3.26303">
        <ele>42</ele>
        <time>2022-11-14T11:35:46.091Z</time>
      </trkpt>
      <trkpt lat="50.53101" lon="3.26303">
        <ele>42</ele>
        <time>2022-11-14T11:35:51.064Z</time>
      </trkpt>
      <trkpt lat="50.531" lon="3.26304">
        <ele>42</ele>
        <time>2022-11-14T11:35:56.037Z</time>
      </trkpt>
      <trkpt lat="50.53097" lon="3.26319">
        <ele>42</ele>
        <time>2022-11-14T11:36:01.012Z</time>
      </trkpt>
      <trkpt lat="50.53084" lon="3.26367">
        <ele>41</ele>
        <time>2022-11-14T11:36:05.994Z</time>
      </trkpt>
      <trkpt lat="50.53091" lon="3.2638">
        <ele>41</ele>
        <time>2022-11-14T11:36:10.978Z</time>
      </trkpt>
      <trkpt lat="50.53095" lon="3.26384">
        <ele>41</ele>
        <time>2022-11-14T11:36:15.963Z</time>
      </trkpt>
      <trkpt lat="50.53114" lon="3.26404">
        <ele>41</ele>
        <time>2022-11-14T11:36:20.952Z</time>
      </trkpt>
      <trkpt lat="50.53115" lon="3.26415">
        <ele>41</ele>
        <time>2022-11-14T11:36:25.943Z</time>
      </trkpt>
      <trkpt lat="50.53075" lon="3.2651">
        <ele>41</ele>
        <time>2022-11-14T11:36:30.948Z</time>
      </trkpt>
      <trkpt lat="50.53096" lon="3.26516">
        <ele>40</ele>
        <time>2022-11-14T11:36:35.958Z</time>
      </trkpt>
      <trkpt lat="50.53174" lon="3.26541">
        <ele>40</ele>
        <time>2022-11-14T11:36:40.984Z</time>
      </trkpt>
      <trkpt lat="50.53185" lon="3.26539">
        <ele>40</ele>
        <time>2022-11-14T11:36:46.012Z</time>
      </trkpt>
      <trkpt lat="50.53209" lon="3.26528">
        <ele>41</ele>
        <time>2022-11-14T11:36:51.045Z</time>
      </trkpt>
      <trkpt lat="50.53236" lon="3.2651">
        <ele>41</ele>
        <time>2022-11-14T11:36:56.084Z</time>
      </trkpt>
      <trkpt lat="50.53247" lon="3.26505">
        <ele>41</ele>
        <time>2022-11-14T11:37:01.125Z</time>
      </trkpt>
      <trkpt lat="50.5327" lon="3.26506">
        <ele>41</ele>
        <time>2022-11-14T11:37:06.170Z</time>
      </trkpt>
      <trkpt lat="50.53271" lon="3.26506">
        <ele>41</ele>
        <time>2022-11-14T11:37:11.216Z</time>
      </trkpt>
      <trkpt lat="50.53278" lon="3.26506">
        <ele>41</ele>
        <time>2022-11-14T11:37:16.263Z</time>
      </trkpt>
      <trkpt lat="50.53333" lon="3.26509">
        <ele>42</ele>
        <time>2022-11-14T11:37:21.321Z</time>
      </trkpt>
      <trkpt lat="50.5334" lon="3.26513">
        <ele>42</ele>
        <time>2022-11-14T11:37:26.381Z</time>
      </trkpt>
      <trkpt lat="50.53347" lon="3.26524">
        <ele>42</ele>
        <time>2022-11-14T11:37:31.443Z</time>
      </trkpt>
      <trkpt lat="50.53377" lon="3.26579">
        <ele>42</ele>
        <time>2022-11-14T11:37:36.514Z</time>
      </trkpt>
      <trkpt lat="50.53389" lon="3.26595">
        <ele>42</ele>
        <time>2022-11-14T11:37:41.588Z</time>
      </trkpt>
      <trkpt lat="50.53396" lon="3.26598">
        <ele>42</ele>
        <time>2022-11-14T11:37:46.663Z</time>
      </trkpt>
      <trkpt lat="50.534" lon="3.26595">
        <ele>43</ele>
        <time>2022-11-14T11:37:51.739Z</time>
      </trkpt>
      <trkpt lat="50.53406" lon="3.26588">
        <ele>43</ele>
        <time>2022-11-14T11:37:56.817Z</time>
      </trkpt>
      <trkpt lat="50.53442" lon="3.26532">
        <ele>43</ele>
        <time>2022-11-14T11:38:01.905Z</time>
      </trkpt>
      <trkpt lat="50.53442" lon="3.26532">
        <ele>43</ele>
        <time>2022-11-14T11:38:06.993Z</time>
      </trkpt>
      <trkpt lat="50.53442" lon="3.26532">
        <ele>44</ele>
        <time>2022-11-14T11:38:12.081Z</time>
      </trkpt>
      <trkpt lat="50.53442" lon="3.26532">
        <ele>44</ele>
        <time>2022-11-14T11:38:17.169Z</time>
      </trkpt>
      <trkpt lat="50.53442" lon="3.26532">
        <ele>44</ele>
        <time>2022-11-14T11:38:22.257Z</time>
      </trkpt>
      <trkpt lat="50.53442" lon="3.26532">
        <ele>44</ele>
        <time>2022-11-14T11:38:27.345Z</time>
      </trkpt>
      <trkpt lat="50.53442" lon="3.26532">
        <ele>45</ele>
        <time>2022-11-14T11:38:32.433Z</time>
      </trkpt>
      <trkpt lat="50.53442" lon="3.26532">
        <ele>45</ele>
        <time>2022-11-14T11:38:37.521Z</time>
      </trkpt>
      <trkpt lat="50.53442" lon="3.26532">
        <ele>46</ele>
        <time>2022-11-14T11:38:42.609Z</time>
      </trkpt>
      <trkpt lat="50.53473" lon="3.26484">
        <ele>46</ele>
        <time>2022-11-14T11:38:47.706Z</time>
      </trkpt>
      <trkpt lat="50.53503" lon="3.26437">
        <ele>47</ele>
        <time>2022-11-14T11:38:52.811Z</time>
      </trkpt>
      <trkpt lat="50.53512" lon="3.26418">
        <ele>47</ele>
        <time>2022-11-14T11:38:57.919Z</time>
      </trkpt>
      <trkpt lat="50.53512" lon="3.26418">
        <ele>47</ele>
        <time>2022-11-14T11:39:03.027Z</time>
      </trkpt>
      <trkpt lat="50.53512" lon="3.26418">
        <ele>47</ele>
        <time>2022-11-14T11:39:08.135Z</time>
      </trkpt>
      <trkpt lat="50.53537" lon="3.26371">
        <ele>49</ele>
        <time>2022-11-14T11:39:13.251Z</time>
      </trkpt>
      <trkpt lat="50.5355" lon="3.26353">
        <ele>49</ele>
        <time>2022-11-14T11:39:18.371Z</time>
      </trkpt>
      <trkpt lat="50.53556" lon="3.26351">
        <ele>49</ele>
        <time>2022-11-14T11:39:23.492Z</time>
      </trkpt>
      <trkpt lat="50.53562" lon="3.26349">
        <ele>50</ele>
        <time>2022-11-14T11:39:28.614Z</time>
      </trkpt>
      <trkpt lat="50.5357" lon="3.26353">
        <ele>50</ele>
        <time>2022-11-14T11:39:33.738Z</time>
      </trkpt>
      <trkpt lat="50.53578" lon="3.26363">
        <ele>50</ele>
        <time>2022-11-14T11:39:38.864Z</time>
      </trkpt>
      <trkpt lat="50.5359" lon="3.26393">
        <ele>50</ele>
        <time>2022-11-14T11:39:43.994Z</time>
      </trkpt>
      <trkpt lat="50.53591" lon="3.26398">
        <ele>50</ele>
        <time>2022-11-14T11:39:49.125Z</time>
      </trkpt>
      <trkpt lat="50.53598" lon="3.26424">
        <ele>50</ele>
        <time>2022-11-14T11:39:54.260Z</time>
      </trkpt>
      <trkpt lat="50.53602" lon="3.26438">
        <ele>49</ele>
        <time>2022-11-14T11:39:59.396Z</time>
      </trkpt>
      <trkpt lat="50.53617" lon="3.26487">
        <ele>49</ele>
        <time>2022-11-14T11:40:04.539Z</time>
      </trkpt>
      <trkpt lat="50.53643" lon="3.26546">
        <ele>48</ele>
        <time>2022-11-14T11:40:09.692Z</time>
      </trkpt>
      <trkpt lat="50.53611" lon="3.26609">
        <ele>48</ele>
        <time>2022-11-14T11:40:14.855Z</time>
      </trkpt>
      <trkpt lat="50.53575" lon="3.26654">
        <ele>47</ele>
        <time>2022-11-14T11:40:20.027Z</time>
      </trkpt>
      <trkpt lat="50.53514" lon="3.26724">
        <ele>46</ele>
        <time>2022-11-14T11:40:25.214Z</time>
      </trkpt>
      <trkpt lat="50.53497" lon="3.26739">
        <ele>46</ele>
        <time>2022-11-14T11:40:30.405Z</time>
      </trkpt>
      <trkpt lat="50.53478" lon="3.26746">
        <ele>45</ele>
        <time>2022-11-14T11:40:35.600Z</time>
      </trkpt>
      <trkpt lat="50.5347" lon="3.26757">
        <ele>44</ele>
        <time>2022-11-14T11:40:40.797Z</time>
      </trkpt>
      <trkpt lat="50.53453" lon="3.26803">
        <ele>44</ele>
        <time>2022-11-14T11:40:46.001Z</time>
      </trkpt>
      <trkpt lat="50.53453" lon="3.26803">
        <ele>43</ele>
        <time>2022-11-14T11:40:51.205Z</time>
      </trkpt>
      <trkpt lat="50.53424" lon="3.26882">
        <ele>43</ele>
        <time>2022-11-14T11:40:56.421Z</time>
      </trkpt>
      <trkpt lat="50.53382" lon="3.27139">
        <ele>42</ele>
        <time>2022-11-14T11:41:01.671Z</time>
      </trkpt>
      <trkpt lat="50.53382" lon="3.2714">
        <ele>42</ele>
        <time>2022-11-14T11:41:06.921Z</time>
      </trkpt>
      <trkpt lat="50.53373" lon="3.2715">
        <ele>41</ele>
        <time>2022-11-14T11:41:12.173Z</time>
      </trkpt>
      <trkpt lat="50.53363" lon="3.27534">
        <ele>41</ele>
        <time>2022-11-14T11:41:17.474Z</time>
      </trkpt>
      <trkpt lat="50.53368" lon="3.27805">
        <ele>40</ele>
        <time>2022-11-14T11:41:22.810Z</time>
      </trkpt>
      <trkpt lat="50.53444" lon="3.28167">
        <ele>40</ele>
        <time>2022-11-14T11:41:28.194Z</time>
      </trkpt>
      <trkpt lat="50.53559" lon="3.28137">
        <ele>40</ele>
        <time>2022-11-14T11:41:33.602Z</time>
      </trkpt>
      <trkpt lat="50.53559" lon="3.28137">
        <ele>40</ele>
        <time>2022-11-14T11:41:39.010Z</time>
      </trkpt>
      <trkpt lat="50.53667" lon="3.28109">
        <ele>40</ele>
        <time>2022-11-14T11:41:44.440Z</time>
      </trkpt>
      <trkpt lat="50.53664" lon="3.28177">
        <ele>40</ele>
        <time>2022-11-14T11:41:49.878Z</time>
      </trkpt>
      <trkpt lat="50.53654" lon="3.28222">
        <ele>40</ele>
        <time>2022-11-14T11:41:55.322Z</time>
      </trkpt>
      <trkpt lat="50.53632" lon="3.28263">
        <ele>40</ele>
        <time>2022-11-14T11:42:00.773Z</time>
      </trkpt>
      <trkpt lat="50.5362" lon="3.28294">
        <ele>40</ele>
        <time>2022-11-14T11:42:06.229Z</time>
      </trkpt>
      <trkpt lat="50.53617" lon="3.28347">
        <ele>40</ele>
        <time>2022-11-14T11:42:11.692Z</time>
      </trkpt>
      <trkpt lat="50.53619" lon="3.28441">
        <ele>40</ele>
        <time>2022-11-14T11:42:17.167Z</time>
      </trkpt>
      <trkpt lat="50.53619" lon="3.28497">
        <ele>40</ele>
        <time>2022-11-14T11:42:22.649Z</time>
      </trkpt>
      <trkpt lat="50.5361" lon="3.28635">
        <ele>40</ele>
        <time>2022-11-14T11:42:28.148Z</time>
      </trkpt>
      <trkpt lat="50.53614" lon="3.28751">
        <ele>40</ele>
        <time>2022-11-14T11:42:33.662Z</time>
      </trkpt>
      <trkpt lat="50.53613" lon="3.28815">
        <ele>40</ele>
        <time>2022-11-14T11:42:39.184Z</time>
      </trkpt>
      <trkpt lat="50.53606" lon="3.2895">
        <ele>40</ele>
        <time>2022-11-14T11:42:44.724Z</time>
      </trkpt>
      <trkpt lat="50.53604" lon="3.28961">
        <ele>40</ele>
        <time>2022-11-14T11:42:50.265Z</time>
      </trkpt>
      <trkpt lat="50.53604" lon="3.28961">
        <ele>40</ele>
        <time>2022-11-14T11:42:55.806Z</time>
      </trkpt>
      <trkpt lat="50.53604" lon="3.28961">
        <ele>39.99</ele>
        <time>2022-11-14T11:43:01.347Z</time>
      </trkpt>
      <trkpt lat="50.53604" lon="3.28966">
        <ele>39</ele>
        <time>2022-11-14T11:43:06.889Z</time>
      </trkpt>
      <trkpt lat="50.53589" lon="3.29013">
        <ele>39</ele>
        <time>2022-11-14T11:43:12.437Z</time>
      </trkpt>
      <trkpt lat="50.53586" lon="3.2903">
        <ele>39</ele>
        <time>2022-11-14T11:43:17.988Z</time>
      </trkpt>
      <trkpt lat="50.53589" lon="3.29058">
        <ele>39</ele>
        <time>2022-11-14T11:43:23.542Z</time>
      </trkpt>
      <trkpt lat="50.53592" lon="3.29077">
        <ele>39</ele>
        <time>2022-11-14T11:43:29.099Z</time>
      </trkpt>
      <trkpt lat="50.53603" lon="3.2913">
        <ele>39</ele>
        <time>2022-11-14T11:43:34.663Z</time>
      </trkpt>
      <trkpt lat="50.53592" lon="3.29077">
        <ele>39</ele>
        <time>2022-11-14T11:43:40.234Z</time>
      </trkpt>
      <trkpt lat="50.53592" lon="3.29077">
        <ele>39</ele>
        <time>2022-11-14T11:43:45.805Z</time>
      </trkpt>
      <trkpt lat="50.53603" lon="3.2913">
        <ele>39</ele>
        <time>2022-11-14T11:43:51.383Z</time>
      </trkpt>
      <trkpt lat="50.53603" lon="3.29142">
        <ele>39</ele>
        <time>2022-11-14T11:43:56.963Z</time>
      </trkpt>
      <trkpt lat="50.536" lon="3.29153">
        <ele>39</ele>
        <time>2022-11-14T11:44:02.544Z</time>
      </trkpt>
      <trkpt lat="50.53672" lon="3.29208">
        <ele>39</ele>
        <time>2022-11-14T11:44:08.141Z</time>
      </trkpt>
      <trkpt lat="50.53655" lon="3.2926">
        <ele>40</ele>
        <time>2022-11-14T11:44:13.745Z</time>
      </trkpt>
      <trkpt lat="50.53583" lon="3.29414">
        <ele>40</ele>
        <time>2022-11-14T11:44:19.374Z</time>
      </trkpt>
      <trkpt lat="50.53573" lon="3.29437">
        <ele>40</ele>
        <time>2022-11-14T11:44:25.006Z</time>
      </trkpt>
      <trkpt lat="50.53532" lon="3.29562">
        <ele>40</ele>
        <time>2022-11-14T11:44:30.656Z</time>
      </trkpt>
      <trkpt lat="50.53532" lon="3.29562">
        <ele>40</ele>
        <time>2022-11-14T11:44:36.306Z</time>
      </trkpt>
      <trkpt lat="50.53532" lon="3.29562">
        <ele>40</ele>
        <time>2022-11-14T11:44:41.956Z</time>
      </trkpt>
      <trkpt lat="50.53529" lon="3.29574">
        <ele>41</ele>
        <time>2022-11-14T11:44:47.608Z</time>
      </trkpt>
      <trkpt lat="50.5352" lon="3.29597">
        <ele>41</ele>
        <time>2022-11-14T11:44:53.263Z</time>
      </trkpt>
      <trkpt lat="50.53523" lon="3.29613">
        <ele>41</ele>
        <time>2022-11-14T11:44:58.921Z</time>
      </trkpt>
      <trkpt lat="50.53504" lon="3.29671">
        <ele>41</ele>
        <time>2022-11-14T11:45:04.587Z</time>
      </trkpt>
      <trkpt lat="50.53507" lon="3.29682">
        <ele>42</ele>
        <time>2022-11-14T11:45:10.255Z</time>
      </trkpt>
      <trkpt lat="50.53514" lon="3.2969">
        <ele>42</ele>
        <time>2022-11-14T11:45:15.924Z</time>
      </trkpt>
      <trkpt lat="50.53561" lon="3.29732">
        <ele>42</ele>
        <time>2022-11-14T11:45:21.604Z</time>
      </trkpt>
      <trkpt lat="50.53561" lon="3.29732">
        <ele>42</ele>
        <time>2022-11-14T11:45:27.284Z</time>
      </trkpt>
      <trkpt lat="50.53586" lon="3.29755">
        <ele>43</ele>
        <time>2022-11-14T11:45:32.970Z</time>
      </trkpt>
      <trkpt lat="50.53607" lon="3.29775">
        <ele>43</ele>
        <time>2022-11-14T11:45:38.661Z</time>
      </trkpt>
      <trkpt lat="50.53674" lon="3.29836">
        <ele>43</ele>
        <time>2022-11-14T11:45:44.367Z</time>
      </trkpt>
      <trkpt lat="50.53683" lon="3.29842">
        <ele>43.98</ele>
        <time>2022-11-14T11:45:50.075Z</time>
      </trkpt>
      <trkpt lat="50.53683" lon="3.29843">
        <ele>44</ele>
        <time>2022-11-14T11:45:55.783Z</time>
      </trkpt>
      <trkpt lat="50.53683" lon="3.29843">
        <ele>44</ele>
        <time>2022-11-14T11:46:01.491Z</time>
      </trkpt>
      <trkpt lat="50.53757" lon="3.29904">
        <ele>44</ele>
        <time>2022-11-14T11:46:07.216Z</time>
      </trkpt>
      <trkpt lat="50.53722" lon="3.29989">
        <ele>45</ele>
        <time>2022-11-14T11:46:12.954Z</time>
      </trkpt>
      <trkpt lat="50.53723" lon="3.29985">
        <ele>45</ele>
        <time>2022-11-14T11:46:18.693Z</time>
      </trkpt>
      <trkpt lat="50.53722" lon="3.29989">
        <ele>45</ele>
        <time>2022-11-14T11:46:24.432Z</time>
      </trkpt>
      <trkpt lat="50.53542" lon="3.30391">
        <ele>45</ele>
        <time>2022-11-14T11:46:30.234Z</time>
      </trkpt>
      <trkpt lat="50.53535" lon="3.30404">
        <ele>45</ele>
        <time>2022-11-14T11:46:36.038Z</time>
      </trkpt>
      <trkpt lat="50.53529" lon="3.30413">
        <ele>44</ele>
        <time>2022-11-14T11:46:41.844Z</time>
      </trkpt>
      <trkpt lat="50.5352" lon="3.30416">
        <ele>44</ele>
        <time>2022-11-14T11:46:47.652Z</time>
      </trkpt>
      <trkpt lat="50.53503" lon="3.30412">
        <ele>44</ele>
        <time>2022-11-14T11:46:53.463Z</time>
      </trkpt>
      <trkpt lat="50.53481" lon="3.30401">
        <ele>44</ele>
        <time>2022-11-14T11:46:59.279Z</time>
      </trkpt>
      <trkpt lat="50.53471" lon="3.30404">
        <ele>44</ele>
        <time>2022-11-14T11:47:05.097Z</time>
      </trkpt>
      <trkpt lat="50.53457" lon="3.30415">
        <ele>43</ele>
        <time>2022-11-14T11:47:10.918Z</time>
      </trkpt>
      <trkpt lat="50.53449" lon="3.30425">
        <ele>43</ele>
        <time>2022-11-14T11:47:16.741Z</time>
      </trkpt>
      <trkpt lat="50.53439" lon="3.30444">
        <ele>43</ele>
        <time>2022-11-14T11:47:22.567Z</time>
      </trkpt>
      <trkpt lat="50.53429" lon="3.30489">
        <ele>43</ele>
        <time>2022-11-14T11:47:28.399Z</time>
      </trkpt>
      <trkpt lat="50.53419" lon="3.30536">
        <ele>42</ele>
        <time>2022-11-14T11:47:34.237Z</time>
      </trkpt>
      <trkpt lat="50.53413" lon="3.30558">
        <ele>42</ele>
        <time>2022-11-14T11:47:40.078Z</time>
      </trkpt>
      <trkpt lat="50.53398" lon="3.30593">
        <ele>42</ele>
        <time>2022-11-14T11:47:45.925Z</time>
      </trkpt>
      <trkpt lat="50.53382" lon="3.3062">
        <ele>42</ele>
        <time>2022-11-14T11:47:51.777Z</time>
      </trkpt>
      <trkpt lat="50.53374" lon="3.30626">
        <ele>42</ele>
        <time>2022-11-14T11:47:57.630Z</time>
      </trkpt>
      <trkpt lat="50.53367" lon="3.30626">
        <ele>42</ele>
        <time>2022-11-14T11:48:03.485Z</time>
      </trkpt>
      <trkpt lat="50.53367" lon="3.30626">
        <ele>42</ele>
        <time>2022-11-14T11:48:09.340Z</time>
      </trkpt>
      <trkpt lat="50.53362" lon="3.30625">
        <ele>42</ele>
        <time>2022-11-14T11:48:15.196Z</time>
      </trkpt>
      <trkpt lat="50.53349" lon="3.30629">
        <ele>42</ele>
        <time>2022-11-14T11:48:21.054Z</time>
      </trkpt>
      <trkpt lat="50.53339" lon="3.30653">
        <ele>42</ele>
        <time>2022-11-14T11:48:26.916Z</time>
      </trkpt>
      <trkpt lat="50.53328" lon="3.30687">
        <ele>43</ele>
        <time>2022-11-14T11:48:32.783Z</time>
      </trkpt>
      <trkpt lat="50.53317" lon="3.30737">
        <ele>43</ele>
        <time>2022-11-14T11:48:38.656Z</time>
      </trkpt>
      <trkpt lat="50.53358" lon="3.30757">
        <ele>43</ele>
        <time>2022-11-14T11:48:44.538Z</time>
      </trkpt>
      <trkpt lat="50.53493" lon="3.30804">
        <ele>44</ele>
        <time>2022-11-14T11:48:50.448Z</time>
      </trkpt>
      <trkpt lat="50.53519" lon="3.30824">
        <ele>44</ele>
        <time>2022-11-14T11:48:56.363Z</time>
      </trkpt>
      <trkpt lat="50.53535" lon="3.30841">
        <ele>44</ele>
        <time>2022-11-14T11:49:02.282Z</time>
      </trkpt>
      <trkpt lat="50.53562" lon="3.30864">
        <ele>44</ele>
        <time>2022-11-14T11:49:08.208Z</time>
      </trkpt>
      <trkpt lat="50.53577" lon="3.30871">
        <ele>44</ele>
        <time>2022-11-14T11:49:14.137Z</time>
      </trkpt>
      <trkpt lat="50.53592" lon="3.30877">
        <ele>44</ele>
        <time>2022-11-14T11:49:20.069Z</time>
      </trkpt>
      <trkpt lat="50.53611" lon="3.30881">
        <ele>44</ele>
        <time>2022-11-14T11:49:26.005Z</time>
      </trkpt>
      <trkpt lat="50.53645" lon="3.30883">
        <ele>44</ele>
        <time>2022-11-14T11:49:31.948Z</time>
      </trkpt>
      <trkpt lat="50.5367" lon="3.31079">
        <ele>43</ele>
        <time>2022-11-14T11:49:37.916Z</time>
      </trkpt>
      <trkpt lat="50.5367" lon="3.31092">
        <ele>43</ele>
        <time>2022-11-14T11:49:43.886Z</time>
      </trkpt>
      <trkpt lat="50.53668" lon="3.31102">
        <ele>43</ele>
        <time>2022-11-14T11:49:49.857Z</time>
      </trkpt>
      <trkpt lat="50.53636" lon="3.31167">
        <ele>42</ele>
        <time>2022-11-14T11:49:55.839Z</time>
      </trkpt>
      <trkpt lat="50.53636" lon="3.31167">
        <ele>42</ele>
        <time>2022-11-14T11:50:01.821Z</time>
      </trkpt>
      <trkpt lat="50.53597" lon="3.31249">
        <ele>43</ele>
        <time>2022-11-14T11:50:07.816Z</time>
      </trkpt>
      <trkpt lat="50.53596" lon="3.31256">
        <ele>43</ele>
        <time>2022-11-14T11:50:13.812Z</time>
      </trkpt>
      <trkpt lat="50.53741" lon="3.3137">
        <ele>44</ele>
        <time>2022-11-14T11:50:19.840Z</time>
      </trkpt>
      <trkpt lat="50.53741" lon="3.3137">
        <ele>44</ele>
        <time>2022-11-14T11:50:25.868Z</time>
      </trkpt>
      <trkpt lat="50.54047" lon="3.31612">
        <ele>46</ele>
        <time>2022-11-14T11:50:31.965Z</time>
      </trkpt>
      <trkpt lat="50.54223" lon="3.31754">
        <ele>47</ele>
        <time>2022-11-14T11:50:38.101Z</time>
      </trkpt>
      <trkpt lat="50.5424" lon="3.31769">
        <ele>48</ele>
        <time>2022-11-14T11:50:44.241Z</time>
      </trkpt>
      <trkpt lat="50.5424" lon="3.31769">
        <ele>49</ele>
        <time>2022-11-14T11:50:50.381Z</time>
      </trkpt>
      <trkpt lat="50.54283" lon="3.31806">
        <ele>51</ele>
        <time>2022-11-14T11:50:56.531Z</time>
      </trkpt>
      <trkpt lat="50.54457" lon="3.31396">
        <ele>53</ele>
        <time>2022-11-14T11:51:02.744Z</time>
      </trkpt>
      <trkpt lat="50.54545" lon="3.31186">
        <ele>54</ele>
        <time>2022-11-14T11:51:08.989Z</time>
      </trkpt>
      <trkpt lat="50.54557" lon="3.31161">
        <ele>55</ele>
        <time>2022-11-14T11:51:15.238Z</time>
      </trkpt>
      <trkpt lat="50.54576" lon="3.31134">
        <ele>57</ele>
        <time>2022-11-14T11:51:21.492Z</time>
      </trkpt>
      <trkpt lat="50.54593" lon="3.31117">
        <ele>58</ele>
        <time>2022-11-14T11:51:27.750Z</time>
      </trkpt>
      <trkpt lat="50.54609" lon="3.31107">
        <ele>58</ele>
        <time>2022-11-14T11:51:34.012Z</time>
      </trkpt>
      <trkpt lat="50.54716" lon="3.31058">
        <ele>59</ele>
        <time>2022-11-14T11:51:40.296Z</time>
      </trkpt>
      <trkpt lat="50.5473" lon="3.31046">
        <ele>60</ele>
        <time>2022-11-14T11:51:46.583Z</time>
      </trkpt>
      <trkpt lat="50.54747" lon="3.31023">
        <ele>60</ele>
        <time>2022-11-14T11:51:52.875Z</time>
      </trkpt>
      <trkpt lat="50.54777" lon="3.30975">
        <ele>61</ele>
        <time>2022-11-14T11:51:59.175Z</time>
      </trkpt>
      <trkpt lat="50.54786" lon="3.3096">
        <ele>61</ele>
        <time>2022-11-14T11:52:05.478Z</time>
      </trkpt>
      <trkpt lat="50.54817" lon="3.30921">
        <ele>61</ele>
        <time>2022-11-14T11:52:11.789Z</time>
      </trkpt>
      <trkpt lat="50.54822" lon="3.30917">
        <ele>61</ele>
        <time>2022-11-14T11:52:18.101Z</time>
      </trkpt>
      <trkpt lat="50.54879" lon="3.30889">
        <ele>61</ele>
        <time>2022-11-14T11:52:24.425Z</time>
      </trkpt>
      <trkpt lat="50.54933" lon="3.30862">
        <ele>61</ele>
        <time>2022-11-14T11:52:30.760Z</time>
      </trkpt>
      <trkpt lat="50.54879" lon="3.30889">
        <ele>61</ele>
        <time>2022-11-14T11:52:37.106Z</time>
      </trkpt>
      <trkpt lat="50.54936" lon="3.3086">
        <ele>61</ele>
        <time>2022-11-14T11:52:43.464Z</time>
      </trkpt>
      <trkpt lat="50.54936" lon="3.3086">
        <ele>61</ele>
        <time>2022-11-14T11:52:49.822Z</time>
      </trkpt>
      <trkpt lat="50.55008" lon="3.3081">
        <ele>61</ele>
        <time>2022-11-14T11:52:56.196Z</time>
      </trkpt>
      <trkpt lat="50.55041" lon="3.30783">
        <ele>61</ele>
        <time>2022-11-14T11:53:02.578Z</time>
      </trkpt>
      <trkpt lat="50.55127" lon="3.30703">
        <ele>60</ele>
        <time>2022-11-14T11:53:08.980Z</time>
      </trkpt>
      <trkpt lat="50.55149" lon="3.30684">
        <ele>60</ele>
        <time>2022-11-14T11:53:15.386Z</time>
      </trkpt>
      <trkpt lat="50.55169" lon="3.3067">
        <ele>60</ele>
        <time>2022-11-14T11:53:21.797Z</time>
      </trkpt>
      <trkpt lat="50.55169" lon="3.3067">
        <ele>60</ele>
        <time>2022-11-14T11:53:28.208Z</time>
      </trkpt>
      <trkpt lat="50.55174" lon="3.30667">
        <ele>60</ele>
        <time>2022-11-14T11:53:34.620Z</time>
      </trkpt>
    </trkseg>
  </trk>
</gpx>